Flight Track Log - Related Links

Times and Time Zones

All times are in EDT time to prevent confusion due to time zone crossing. See the CPA879 flight status page for this flight to view local times or setup timezone preferences in your user account.

Time Position Orientation Groundspeed Altitude Reporting Facility
EDT Latitude Longitude Course Direction KTS MPH feet Rate Location/Type
Sun 05:12:12 PM 37.6950 -122.7660 273° West 309 356 8,400  Level FlightAware ADS-B
Sun 05:12:37 PM 37.6970 -122.8140 273° West 313 360 9,400 2,400 Climbing FlightAware ADS-B
Sun 05:12:52 PM 37.6990 -122.8390 276° West 314 361 10,000 1,636 Climbing FlightAware ADS-B
Sun 05:13:32 PM 37.7030 -122.9150 274° West 340 391 10,900 1,200 Climbing FlightAware ADS-B
Sun 05:14:17 PM 37.7080 -123.0120 274° West 381 438 11,700 900 Climbing FlightAware ADS-B
Sun 05:15:12 PM 37.7140 -123.1280 274° West 395 455 12,400 1,855 Climbing FlightAware ADS-B
Sun 05:16:07 PM 37.7210 -123.2610 274° West 414 476 15,100 1,620 Climbing FlightAware ADS-B
Sun 05:16:52 PM 37.7250 -123.3600 273° West 414 476 15,100  Level FlightAware ADS-B
Sun 05:17:32 PM 37.7290 -123.4420 274° West 414 476 15,100  Level FlightAware ADS-B
Sun 05:18:12 PM 37.7320 -123.5240 273° West 414 476 15,100  Level FlightAware ADS-B
Sun 05:18:52 PM 37.7350 -123.6060 273° West 414 476 15,100  Level FlightAware ADS-B
Sun 05:19:32 PM 37.7390 -123.6890 274° West 414 476 15,100 4,639 Level FlightAware ADS-B
Sun 05:20:29 PM 37.7528 -123.9161 274° West 450 518 22,600 4,525 Climbing Oakland Center
Sun 05:21:30 PM 37.7453 -124.0794 267° West 463 533 24,000 1,279 Climbing Oakland Center
Sun 05:22:31 PM 37.7311 -124.2436 264° West 470 541 25,200 1,220 Climbing Oakland Center
Sun 05:23:33 PM 37.7206 -124.4450 266° West 480 552 26,500 1,220 Climbing Oakland Center
Sun 05:24:34 PM 37.7325 -124.6175 275° West 491 565 27,700 1,220 Climbing Oakland Center
Sun 05:25:36 PM 37.7411 -124.7883 274° West 491 565 29,000 1,122 Climbing Oakland Center
Sun 05:26:37 PM 37.7514 -124.9611 274° West 494 568 30,000 492 Climbing Oakland Center
Sun 05:27:38 PM 37.7614 -125.1319 274° West 491 565 30,000  Level Oakland Center
Sun 05:28:40 PM 37.7714 -125.3044 274° West 492 566 30,000  Level Oakland Center
Sun 05:29:41 PM 37.7800 -125.4775 274° West 493 567 30,000  Level Oakland Center
Sun 05:30:43 PM 37.7892 -125.6492 274° West 492 566 30,000  Level Oakland Center
Sun 05:31:44 PM 37.7989 -125.8214 274° West 492 566 30,000  Level Oakland Center
Sun 05:32:46 PM 37.8078 -126.0272 273° West 491 565 30,000  Level Oakland Center
Sun 05:33:47 PM 37.8167 -126.1992 274° West 491 565 30,000  Level Oakland Center
Sun 05:34:49 PM 37.8236 -126.3517 273° West 493 567 30,000  Level Oakland Center
Sun 05:35:50 PM 37.8342 -126.5600 274° West 495 570 30,000  Level Oakland Center
Sun 05:36:52 PM 37.8403 -126.7311 273° West 491 565 30,000  Level Oakland Center
Sun 05:37:53 PM 37.8492 -126.9064 274° West 496 571 30,000  Level Oakland Center
Sun 05:38:27 PM 37.8500 -127.0000 271° West 494 568 30,000  Level Oakland Oceanic (ODAPS)
Sun 05:38:55 PM 37.8547 -127.0786 271° West 493 567 30,000  Level Oakland Center
Sun 05:39:56 PM 37.8539 -127.2531 270° West 496 571 30,000  Level Oakland Center
Sun 05:40:57 PM 37.8542 -127.4267 270° West 495 570 30,000  Level Oakland Center
Sun 05:41:59 PM 37.8542 -127.6006 270° West 495 570 30,000  Level Oakland Center
Sun 05:43:01 PM 37.8561 -127.7753 271° West 497 572 30,000  Level Oakland Center
Sun 05:44:02 PM 37.8575 -127.9858 271° West 498 573 30,000  Level Oakland Center
Sun 05:45:04 PM 37.8567 -128.1250 270° West 499 574 30,000  Level Oakland Center
Sun 05:46:47 PM 37.8500 -128.2833 270° West 494 568 30,000  Level Oakland Oceanic (ODAPS)
Sun 05:53:00 PM 37.8410 -129.4851 269° West 494 568 30,000  Level FlightAware Transoceanic
Sun 05:54:00 PM 37.8387 -129.6567 269° West 494 568 30,000  Level FlightAware Transoceanic
Sun 05:55:00 PM 37.8361 -129.8284 269° West 494 568 30,000 1,132 Level FlightAware Transoceanic
Sun 05:55:46 PM 37.8333 -130.0000 282° West 500 575 32,000  Climbing Oakland Oceanic (ODAPS)
Sun 05:56:00 PM 37.8333 -130.0000 282° West 494 568 30,000 -1,622 Descending FlightAware Transoceanic
Sun 05:57:00 PM 37.8606 -130.1694 281° West 494 568 30,000  Level FlightAware Transoceanic
Sun 05:58:00 PM 37.8876 -130.3389 281° West 494 568 30,000  Level FlightAware Transoceanic
Sun 05:59:00 PM 37.9143 -130.5085 281° West 494 568 30,000 1,091 Level FlightAware Transoceanic
Sun 05:59:50 PM 37.9500 -130.7000 281° West 500 575 32,000  Climbing Oakland Oceanic (ODAPS)
Sun 06:00:00 PM 37.9408 -130.6783 281° West 494 568 30,000 -1,714 Descending FlightAware Transoceanic
Sun 06:01:00 PM 37.9671 -130.8482 281° West 494 568 30,000 1,000 Level FlightAware Transoceanic
Sun 06:02:00 PM 37.9958 -131.0361 281° West 500 575 32,000 1,000 Climbing FlightAware Transoceanic
Sun 06:03:00 PM 38.0220 -131.2092 281° West 500 575 32,000  Level FlightAware Transoceanic
Sun 06:04:00 PM 38.0479 -131.3825 281° West 500 575 32,000  Level FlightAware Transoceanic
Sun 06:05:00 PM 38.0736 -131.5559 281° West 500 575 32,000  Level FlightAware Transoceanic
Sun 06:06:00 PM 38.1055 -131.7381 280° West 500 575 32,000  Level FlightAware Transoceanic
Sun 06:07:00 PM 38.1305 -131.9116 280° West 500 575 32,000  Level FlightAware Transoceanic
Sun 06:08:00 PM 38.1553 -132.0851 280° West 500 575 32,000  Level FlightAware Transoceanic
Sun 06:09:00 PM 38.1798 -132.2588 280° West 500 575 32,000  Level FlightAware Transoceanic
Sun 06:10:00 PM 38.2041 -132.4326 280° West 500 575 32,000  Level FlightAware Transoceanic
Sun 06:11:00 PM 38.2281 -132.6065 280° West 500 575 32,000  Level FlightAware Transoceanic
Sun 06:12:00 PM 38.2518 -132.7805 280° West 500 575 32,000  Level FlightAware Transoceanic
Sun 06:13:00 PM 38.2753 -132.9547 280° West 500 575 32,000  Level FlightAware Transoceanic
Sun 06:13:43 PM 38.2833 -133.1000 280° West 498 573 32,000  Level Oakland Oceanic (ODAPS)
Sun 06:14:00 PM 38.2985 -133.1289 280° West 500 575 32,000  Level FlightAware Transoceanic
Sun 06:15:00 PM 38.3215 -133.3033 279° West 500 575 32,000  Level FlightAware Transoceanic
Sun 06:16:00 PM 38.3442 -133.4778 279° West 500 575 32,000  Level FlightAware Transoceanic
Sun 06:17:00 PM 38.3667 -133.6523 279° West 500 575 32,000  Level FlightAware Transoceanic
Sun 06:18:00 PM 38.3889 -133.8270 279° West 500 575 32,000  Level FlightAware Transoceanic
Sun 06:19:00 PM 38.4108 -134.0018 279° West 500 575 32,000  Level FlightAware Transoceanic
Sun 06:20:00 PM 38.4379 -134.2970 279° West 498 573 32,000  Level FlightAware Transoceanic
Sun 06:21:00 PM 38.4590 -134.4684 279° West 498 573 32,000  Level FlightAware Transoceanic
Sun 06:22:00 PM 38.4798 -134.6399 279° West 498 573 32,000  Level FlightAware Transoceanic
Sun 06:23:00 PM 38.5004 -134.8115 279° West 498 573 32,000  Level FlightAware Transoceanic
Sun 06:24:00 PM 38.5207 -134.9832 279° West 498 573 32,000  Level FlightAware Transoceanic
Sun 06:25:00 PM 38.5408 -135.1550 278° West 498 573 32,000  Level FlightAware Transoceanic
Sun 06:26:00 PM 38.5606 -135.3269 278° West 498 573 32,000  Level FlightAware Transoceanic
Sun 06:27:00 PM 38.5802 -135.4989 278° West 498 573 32,000  Level FlightAware Transoceanic
Sun 06:27:34 PM 38.5833 -135.5000 278° West 494 568 32,000  Level Oakland Oceanic (ODAPS)
Sun 06:28:00 PM 38.5995 -135.6710 278° West 498 573 32,000  Level FlightAware Transoceanic
Sun 06:29:00 PM 38.6186 -135.8431 278° West 498 573 32,000  Level FlightAware Transoceanic
Sun 06:30:00 PM 38.6374 -136.0154 278° West 498 573 32,000  Level FlightAware Transoceanic
Sun 06:31:00 PM 38.6560 -136.1877 278° West 498 573 32,000  Level FlightAware Transoceanic
Sun 06:32:00 PM 38.6743 -136.3602 278° West 498 573 32,000  Level FlightAware Transoceanic
Sun 06:33:00 PM 38.6924 -136.5327 278° West 498 573 32,000  Level FlightAware Transoceanic
Sun 06:34:00 PM 38.7125 -136.7062 277° West 494 568 32,000  Level FlightAware Transoceanic
Sun 06:35:00 PM 38.7299 -136.8789 277° West 494 568 32,000  Level FlightAware Transoceanic
Sun 06:36:00 PM 38.7471 -137.0516 277° West 494 568 32,000  Level FlightAware Transoceanic
Sun 06:37:00 PM 38.7640 -137.2245 277° West 494 568 32,000  Level FlightAware Transoceanic
Sun 06:38:00 PM 38.7807 -137.3974 277° West 494 568 32,000  Level FlightAware Transoceanic
Sun 06:39:00 PM 38.7971 -137.5703 277° West 494 568 32,000  Level FlightAware Transoceanic
Sun 06:40:00 PM 38.8133 -137.7434 277° West 494 568 32,000  Level FlightAware Transoceanic
Sun 06:41:00 PM 38.8292 -137.9166 277° West 494 568 32,000  Level FlightAware Transoceanic
Sun 06:41:30 PM 38.8333 -137.8833 276° West 489 563 32,000  Level Oakland Oceanic (ODAPS)
Sun 06:42:00 PM 38.8448 -138.0898 277° West 494 568 32,000  Level FlightAware Transoceanic
Sun 06:43:00 PM 38.8602 -138.2631 276° West 494 568 32,000  Level FlightAware Transoceanic
Sun 06:44:00 PM 38.8753 -138.4365 276° West 494 568 32,000  Level FlightAware Transoceanic
Sun 06:45:00 PM 38.8902 -138.6099 276° West 494 568 32,000  Level FlightAware Transoceanic
Sun 06:46:00 PM 38.9048 -138.7834 276° West 494 568 32,000  Level FlightAware Transoceanic
Sun 06:47:00 PM 38.9214 -138.9404 276° West 489 563 32,000  Level FlightAware Transoceanic
Sun 06:48:00 PM 38.9352 -139.1169 276° West 489 563 32,000  Level FlightAware Transoceanic
Sun 06:49:00 PM 38.9487 -139.2934 276° West 489 563 32,000  Level FlightAware Transoceanic
Sun 06:50:00 PM 38.9619 -139.4699 275° West 489 563 32,000  Level FlightAware Transoceanic
Sun 06:51:00 PM 38.9749 -139.6465 275° West 489 563 32,000  Level FlightAware Transoceanic
Sun 06:52:00 PM 38.9876 -139.8232 275° West 489 563 32,000  Level FlightAware Transoceanic
Sun 06:53:00 PM 39.0000 -140.0000 288° West 489 563 32,000  Level FlightAware Transoceanic
Sun 06:53:43 PM 39.0000 -140.0000 288° West 482 555 32,000  Level Oakland Oceanic (ODAPS)
Sun 06:54:00 PM 39.0402 -140.1616 288° West 489 563 32,000  Level FlightAware Transoceanic
Sun 06:55:00 PM 39.0802 -140.3235 288° West 489 563 32,000  Level FlightAware Transoceanic
Sun 06:55:28 PM 39.0667 -140.2667 288° West 477 549 32,000  Level Oakland Oceanic (ODAPS)
Sun 06:56:00 PM 39.1200 -140.4855 288° West 489 563 32,000  Level FlightAware Transoceanic
Sun 06:57:00 PM 39.1596 -140.6477 287° West 489 563 32,000  Level FlightAware Transoceanic
Sun 06:58:00 PM 39.1989 -140.8100 287° West 489 563 32,000  Level FlightAware Transoceanic
Sun 06:59:00 PM 39.2380 -140.9726 287° West 489 563 32,000  Level FlightAware Transoceanic
Sun 07:00:00 PM 39.2769 -141.1353 287° West 482 555 32,000  Level FlightAware Transoceanic
Sun 07:01:00 PM 39.3038 -141.2470 287° West 477 549 32,000  Level FlightAware Transoceanic
Sun 07:02:00 PM 39.3426 -141.4110 287° West 477 549 32,000  Level FlightAware Transoceanic
Sun 07:03:00 PM 39.3811 -141.5752 287° West 477 549 32,000  Level FlightAware Transoceanic
Sun 07:04:00 PM 39.4193 -141.7396 287° West 477 549 32,000  Level FlightAware Transoceanic
Sun 07:05:00 PM 39.4574 -141.9041 287° West 477 549 32,000  Level FlightAware Transoceanic
Sun 07:06:00 PM 39.4952 -142.0689 287° West 477 549 32,000  Level FlightAware Transoceanic
Sun 07:07:00 PM 39.5327 -142.2338 286° West 477 549 32,000  Level FlightAware Transoceanic
Sun 07:08:00 PM 39.5701 -142.3989 286° West 477 549 32,000  Level FlightAware Transoceanic
Sun 07:09:00 PM 39.6072 -142.5642 286° West 477 549 32,000  Level FlightAware Transoceanic
Sun 07:09:11 PM 39.6000 -142.5500 286° West 474 545 32,000  Level Oakland Oceanic (ODAPS)
Sun 07:10:00 PM 39.6440 -142.7297 286° West 477 549 32,000  Level FlightAware Transoceanic
Sun 07:11:00 PM 39.6807 -142.8953 286° West 477 549 32,000  Level FlightAware Transoceanic
Sun 07:12:00 PM 39.7171 -143.0611 286° West 477 549 32,000  Level FlightAware Transoceanic
Sun 07:13:00 PM 39.7532 -143.2271 286° West 477 549 32,000  Level FlightAware Transoceanic
Sun 07:14:00 PM 39.7892 -143.3932 286° West 477 549 32,000  Level FlightAware Transoceanic
Sun 07:15:00 PM 39.8187 -143.5472 286° West 474 545 32,000  Level FlightAware Transoceanic
Sun 07:16:00 PM 39.8544 -143.7140 285° West 474 545 32,000  Level FlightAware Transoceanic
Sun 07:17:00 PM 39.8898 -143.8810 285° West 474 545 32,000  Level FlightAware Transoceanic
Sun 07:18:00 PM 39.9249 -144.0481 285° West 474 545 32,000  Level FlightAware Transoceanic
Sun 07:19:00 PM 39.9598 -144.2154 285° West 474 545 32,000  Level FlightAware Transoceanic
Sun 07:20:00 PM 39.9945 -144.3829 285° West 474 545 32,000  Level FlightAware Transoceanic
Sun 07:21:00 PM 40.0289 -144.5506 285° West 474 545 32,000  Level FlightAware Transoceanic
Sun 07:22:00 PM 40.0631 -144.7184 285° West 474 545 32,000  Level FlightAware Transoceanic
Sun 07:23:00 PM 40.0970 -144.8864 285° West 474 545 32,000  Level FlightAware Transoceanic
Sun 07:23:06 PM 40.1000 -144.8667 285° West 474 545 32,000  Level Oakland Oceanic (ODAPS)
Sun 07:24:00 PM 40.1307 -145.0546 285° West 474 545 32,000  Level FlightAware Transoceanic
Sun 07:25:00 PM 40.1642 -145.2229 285° West 474 545 32,000  Level FlightAware Transoceanic
Sun 07:26:00 PM 40.1974 -145.3914 284° West 474 545 32,000  Level FlightAware Transoceanic
Sun 07:27:00 PM 40.2304 -145.5601 284° West 474 545 32,000  Level FlightAware Transoceanic
Sun 07:28:00 PM 40.2631 -145.7289 284° West 474 545 32,000  Level FlightAware Transoceanic
Sun 07:29:00 PM 40.2981 -145.8821 284° West 474 545 32,000  Level FlightAware Transoceanic
Sun 07:30:00 PM 40.3302 -146.0519 284° West 474 545 32,000  Level FlightAware Transoceanic
Sun 07:31:00 PM 40.3621 -146.2218 284° West 474 545 32,000  Level FlightAware Transoceanic
Sun 07:32:00 PM 40.3938 -146.3920 284° West 474 545 32,000  Level FlightAware Transoceanic
Sun 07:33:00 PM 40.4252 -146.5623 284° West 474 545 32,000  Level FlightAware Transoceanic
Sun 07:34:00 PM 40.4563 -146.7327 283° West 474 545 32,000  Level FlightAware Transoceanic
Sun 07:35:00 PM 40.4872 -146.9033 283° West 474 545 32,000  Level FlightAware Transoceanic
Sun 07:36:00 PM 40.5179 -147.0741 283° West 474 545 32,000  Level FlightAware Transoceanic
Sun 07:36:55 PM 40.5333 -147.2167 283° West 482 555 32,000  Level Oakland Oceanic (ODAPS)
Sun 07:37:00 PM 40.5483 -147.2450 283° West 474 545 32,000  Level FlightAware Transoceanic
Sun 07:38:00 PM 40.5784 -147.4161 283° West 474 545 32,000  Level FlightAware Transoceanic
Sun 07:39:00 PM 40.6083 -147.5873 283° West 474 545 32,000  Level FlightAware Transoceanic
Sun 07:40:00 PM 40.6379 -147.7587 283° West 474 545 32,000  Level FlightAware Transoceanic
Sun 07:41:00 PM 40.6673 -147.9302 283° West 474 545 32,000  Level FlightAware Transoceanic
Sun 07:42:00 PM 40.6965 -148.1019 283° West 474 545 32,000  Level FlightAware Transoceanic
Sun 07:43:00 PM 40.7162 -148.2558 283° West 482 555 32,000  Level FlightAware Transoceanic
Sun 07:44:00 PM 40.7457 -148.4296 283° West 482 555 32,000  Level FlightAware Transoceanic
Sun 07:45:00 PM 40.7750 -148.6035 282° West 482 555 32,000  Level FlightAware Transoceanic
Sun 07:46:00 PM 40.8041 -148.7775 282° West 482 555 32,000  Level FlightAware Transoceanic
Sun 07:47:00 PM 40.8329 -148.9517 282° West 482 555 32,000  Level FlightAware Transoceanic
Sun 07:48:00 PM 40.8614 -149.1260 282° West 482 555 32,000  Level FlightAware Transoceanic
Sun 07:49:00 PM 40.8896 -149.3005 282° West 482 555 32,000  Level FlightAware Transoceanic
Sun 07:50:00 PM 40.9176 -149.4752 282° West 482 555 32,000  Level FlightAware Transoceanic
Sun 07:50:47 PM 40.9333 -149.5833 282° West 488 562 32,000  Level Oakland Oceanic (ODAPS)
Sun 07:51:00 PM 40.9453 -149.6500 282° West 482 555 32,000  Level FlightAware Transoceanic
Sun 07:52:00 PM 40.9728 -149.8249 282° West 482 555 32,000  Level FlightAware Transoceanic
Sun 07:53:00 PM 41.0000 -150.0000 288° West 482 555 32,000  Level FlightAware Transoceanic
Sun 07:53:11 PM 41.0000 -150.0000 288° West 483 556 32,000  Level Oakland Oceanic (ODAPS)
Sun 07:54:00 PM 41.0432 -150.1728 288° West 482 555 32,000  Level FlightAware Transoceanic
Sun 07:55:00 PM 41.0861 -150.3458 288° West 482 555 32,000  Level FlightAware Transoceanic
Sun 07:56:00 PM 41.1287 -150.5191 288° West 482 555 32,000  Level FlightAware Transoceanic
Sun 07:57:00 PM 41.1711 -150.6926 288° West 488 562 32,000  Level FlightAware Transoceanic
Sun 07:58:00 PM 41.2132 -150.8663 288° West 488 562 32,000  Level FlightAware Transoceanic
Sun 07:59:00 PM 41.2507 -151.0219 288° West 483 556 32,000  Level FlightAware Transoceanic
Sun 08:00:00 PM 41.2916 -151.1929 288° West 483 556 32,000  Level FlightAware Transoceanic
Sun 08:01:00 PM 41.3323 -151.3642 287° West 483 556 32,000  Level FlightAware Transoceanic
Sun 08:02:00 PM 41.3727 -151.5357 287° West 483 556 32,000  Level FlightAware Transoceanic
Sun 08:03:00 PM 41.4128 -151.7074 287° West 483 556 32,000  Level FlightAware Transoceanic
Sun 08:04:00 PM 41.4527 -151.8793 287° West 483 556 32,000  Level FlightAware Transoceanic
Sun 08:04:38 PM 41.4500 -151.9000 287° West 485 558 32,000  Level Oakland Oceanic (ODAPS)
Sun 08:05:00 PM 41.4923 -152.0514 287° West 483 556 32,000  Level FlightAware Transoceanic
Sun 08:06:00 PM 41.5317 -152.2238 287° West 483 556 32,000  Level FlightAware Transoceanic
Sun 08:07:00 PM 41.5708 -152.3963 287° West 483 556 32,000  Level FlightAware Transoceanic
Sun 08:08:00 PM 41.6097 -152.5691 287° West 483 556 32,000  Level FlightAware Transoceanic
Sun 08:09:00 PM 41.6483 -152.7420 287° West 483 556 32,000  Level FlightAware Transoceanic
Sun 08:10:00 PM 41.6841 -152.9332 287° West 485 558 32,000  Level FlightAware Transoceanic
Sun 08:11:00 PM 41.7222 -153.1062 286° West 485 558 32,000  Level FlightAware Transoceanic
Sun 08:12:00 PM 41.7601 -153.2793 286° West 485 558 32,000  Level FlightAware Transoceanic
Sun 08:13:00 PM 41.7977 -153.4526 286° West 485 558 32,000  Level FlightAware Transoceanic
Sun 08:14:00 PM 41.8350 -153.6262 286° West 485 558 32,000  Level FlightAware Transoceanic
Sun 08:15:00 PM 41.8721 -153.7999 286° West 485 558 32,000  Level FlightAware Transoceanic
Sun 08:16:00 PM 41.9089 -153.9738 286° West 485 558 32,000  Level FlightAware Transoceanic
Sun 08:17:00 PM 41.9454 -154.1480 286° West 485 558 32,000  Level FlightAware Transoceanic
Sun 08:18:00 PM 41.9817 -154.3223 286° West 485 558 32,000  Level FlightAware Transoceanic
Sun 08:18:31 PM 41.9667 -154.2667 286° West 486 559 32,000  Level Oakland Oceanic (ODAPS)
Sun 08:19:00 PM 42.0177 -154.4969 285° West 485 558 32,000  Level FlightAware Transoceanic
Sun 08:20:00 PM 42.0535 -154.6716 285° West 485 558 32,000  Level FlightAware Transoceanic
Sun 08:21:00 PM 42.0890 -154.8465 285° West 485 558 32,000  Level FlightAware Transoceanic
Sun 08:22:00 PM 42.1242 -155.0217 285° West 485 558 32,000  Level FlightAware Transoceanic
Sun 08:23:00 PM 42.1591 -155.1970 285° West 485 558 32,000  Level FlightAware Transoceanic
Sun 08:24:00 PM 42.1757 -155.2947 285° West 486 559 32,000  Level FlightAware Transoceanic
Sun 08:25:00 PM 42.2096 -155.4667 285° West 486 559 32,000  Level FlightAware Transoceanic
Sun 08:26:00 PM 42.2433 -155.6389 285° West 486 559 32,000  Level FlightAware Transoceanic
Sun 08:27:00 PM 42.2767 -155.8112 285° West 486 559 32,000  Level FlightAware Transoceanic
Sun 08:28:00 PM 42.3098 -155.9838 285° West 486 559 32,000  Level FlightAware Transoceanic
Sun 08:29:00 PM 42.3428 -156.1565 284° West 486 559 32,000  Level FlightAware Transoceanic
Sun 08:30:00 PM 42.3754 -156.3294 284° West 486 559 32,000  Level FlightAware Transoceanic
Sun 08:31:00 PM 42.4078 -156.5025 284° West 486 559 32,000  Level FlightAware Transoceanic
Sun 08:32:00 PM 42.4399 -156.6757 284° West 486 559 32,000  Level FlightAware Transoceanic
Sun 08:32:23 PM 42.4500 -156.6833 284° West 487 560 32,000  Level Oakland Oceanic (ODAPS)
Sun 08:33:00 PM 42.4718 -156.8492 284° West 486 559 32,000  Level FlightAware Transoceanic
Sun 08:34:00 PM 42.5034 -157.0228 284° West 486 559 32,000  Level FlightAware Transoceanic
Sun 08:35:00 PM 42.5347 -157.1965 284° West 486 559 32,000  Level FlightAware Transoceanic
Sun 08:36:00 PM 42.5658 -157.3705 284° West 486 559 32,000  Level FlightAware Transoceanic
Sun 08:37:00 PM 42.5966 -157.5446 283° West 486 559 32,000  Level FlightAware Transoceanic
Sun 08:38:00 PM 42.6340 -157.7243 283° West 487 560 32,000  Level FlightAware Transoceanic
Sun 08:39:00 PM 42.6637 -157.8984 283° West 487 560 32,000  Level FlightAware Transoceanic
Sun 08:40:00 PM 42.6932 -158.0726 283° West 487 560 32,000  Level FlightAware Transoceanic
Sun 08:41:00 PM 42.7225 -158.2470 283° West 487 560 32,000  Level FlightAware Transoceanic
Sun 08:42:00 PM 42.7514 -158.4216 283° West 487 560 32,000  Level FlightAware Transoceanic
Sun 08:43:00 PM 42.7801 -158.5964 283° West 487 560 32,000  Level FlightAware Transoceanic
Sun 08:44:00 PM 42.8085 -158.7713 282° West 487 560 32,000  Level FlightAware Transoceanic
Sun 08:45:00 PM 42.8367 -158.9463 282° West 487 560 32,000  Level FlightAware Transoceanic
Sun 08:46:00 PM 42.8646 -159.1216 282° West 487 560 32,000  Level FlightAware Transoceanic
Sun 08:46:19 PM 42.8667 -159.1833 283° West 499 574 32,000  Level Oakland Oceanic (ODAPS)
Sun 08:47:00 PM 42.8922 -159.2969 282° West 487 560 32,000  Level FlightAware Transoceanic
Sun 08:48:00 PM 42.9196 -159.4725 282° West 487 560 32,000  Level FlightAware Transoceanic
Sun 08:49:00 PM 42.9466 -159.6482 282° West 487 560 32,000  Level FlightAware Transoceanic
Sun 08:50:00 PM 42.9734 -159.8240 282° West 487 560 32,000  Level FlightAware Transoceanic
Sun 08:50:39 PM 43.0000 -160.0000 289° West 512 589 32,000  Level Oakland Oceanic (ODAPS)
Sun 08:51:00 PM 43.0000 -160.0000 289° West 487 560 32,000  Level FlightAware Transoceanic
Sun 08:52:00 PM 43.0927 -160.3716 289° West 499 574 32,000  Level FlightAware Transoceanic
Sun 08:53:00 PM 43.1386 -160.5578 289° West 499 574 32,000  Level FlightAware Transoceanic
Sun 08:54:00 PM 43.1842 -160.7443 288° West 499 574 32,000  Level FlightAware Transoceanic
Sun 08:55:00 PM 43.2295 -160.9311 288° West 499 574 32,000  Level FlightAware Transoceanic
Sun 08:56:00 PM 43.2745 -161.1181 288° West 499 574 32,000  Level FlightAware Transoceanic
Sun 08:57:00 PM 43.3133 -161.2807 288° West 512 589 32,000  Level FlightAware Transoceanic
Sun 08:58:00 PM 43.3569 -161.4647 288° West 512 589 32,000  Level FlightAware Transoceanic
Sun 08:59:00 PM 43.4002 -161.6490 288° West 512 589 32,000  Level FlightAware Transoceanic
Sun 09:00:00 PM 43.4432 -161.8335 288° West 512 589 32,000  Level FlightAware Transoceanic
Sun 09:00:08 PM 43.4333 -161.7500 288° West 517 595 32,000  Level Oakland Oceanic (ODAPS)
Sun 09:01:00 PM 43.4859 -162.0184 288° West 512 589 32,000  Level FlightAware Transoceanic
Sun 09:02:00 PM 43.5283 -162.2034 287° West 512 589 32,000  Level FlightAware Transoceanic
Sun 09:03:00 PM 43.5704 -162.3887 287° West 512 589 32,000  Level FlightAware Transoceanic
Sun 09:04:00 PM 43.6122 -162.5743 287° West 512 589 32,000  Level FlightAware Transoceanic
Sun 09:05:00 PM 43.6537 -162.7602 287° West 512 589 32,000  Level FlightAware Transoceanic
Sun 09:06:00 PM 43.6930 -162.9008 287° West 517 595 32,000  Level FlightAware Transoceanic
Sun 09:07:00 PM 43.7352 -163.0936 287° West 517 595 32,000  Level FlightAware Transoceanic
Sun 09:08:00 PM 43.7770 -163.2866 287° West 517 595 32,000  Level FlightAware Transoceanic
Sun 09:09:00 PM 43.8185 -163.4799 287° West 517 595 32,000  Level FlightAware Transoceanic
Sun 09:10:00 PM 43.8597 -163.6735 286° West 517 595 32,000  Level FlightAware Transoceanic
Sun 09:11:00 PM 43.9006 -163.8673 286° West 517 595 32,000  Level FlightAware Transoceanic
Sun 09:12:00 PM 43.9411 -164.0614 286° West 517 595 32,000  Level FlightAware Transoceanic
Sun 09:13:00 PM 43.9813 -164.2558 286° West 517 595 32,000  Level FlightAware Transoceanic
Sun 09:14:00 PM 44.0212 -164.4504 286° West 517 595 32,000  Level FlightAware Transoceanic
Sun 09:14:02 PM 44.0167 -164.4333 286° West 531 611 32,000  Level Oakland Oceanic (ODAPS)
Sun 09:15:00 PM 44.0607 -164.6453 286° West 517 595 32,000  Level FlightAware Transoceanic
Sun 09:16:00 PM 44.0999 -164.8405 286° West 517 595 32,000  Level FlightAware Transoceanic
Sun 09:17:00 PM 44.1388 -165.0359 285° West 517 595 32,000  Level FlightAware Transoceanic
Sun 09:18:00 PM 44.1773 -165.2315 285° West 517 595 32,000  Level FlightAware Transoceanic
Sun 09:19:00 PM 44.2155 -165.4274 285° West 517 595 32,000  Level FlightAware Transoceanic
Sun 09:20:00 PM 44.2584 -165.6538 285° West 531 611 32,000  Level FlightAware Transoceanic
Sun 09:21:00 PM 44.2974 -165.8582 285° West 531 611 32,000  Level FlightAware Transoceanic
Sun 09:22:00 PM 44.3361 -166.0629 285° West 531 611 32,000  Level FlightAware Transoceanic
Sun 09:23:00 PM 44.3744 -166.2678 285° West 531 611 32,000  Level FlightAware Transoceanic
Sun 09:24:00 PM 44.4123 -166.4729 284° West 531 611 32,000  Level FlightAware Transoceanic
Sun 09:25:00 PM 44.4499 -166.6784 284° West 531 611 32,000  Level FlightAware Transoceanic
Sun 09:26:00 PM 44.4870 -166.8841 284° West 531 611 32,000  Level FlightAware Transoceanic
Sun 09:27:00 PM 44.5239 -167.0901 284° West 531 611 32,000 526 Level FlightAware Transoceanic
Sun 09:27:54 PM 44.5500 -167.2167 284° West 530 610 33,000  Climbing Oakland Oceanic (ODAPS)
Sun 09:28:00 PM 44.5603 -167.2963 284° West 531 611 32,000 -909 Descending FlightAware Transoceanic
Sun 09:29:00 PM 44.5964 -167.5028 284° West 531 611 32,000  Level FlightAware Transoceanic
Sun 09:30:00 PM 44.6321 -167.7095 284° West 531 611 32,000  Level FlightAware Transoceanic
Sun 09:31:00 PM 44.6674 -167.9165 283° West 531 611 32,000  Level FlightAware Transoceanic
Sun 09:32:00 PM 44.7024 -168.1238 283° West 531 611 32,000  Level FlightAware Transoceanic
Sun 09:33:00 PM 44.7370 -168.3313 283° West 531 611 32,000 500 Level FlightAware Transoceanic
Sun 09:34:00 PM 44.7661 -168.4959 283° West 530 610 33,000 500 Climbing FlightAware Transoceanic
Sun 09:35:00 PM 44.8007 -168.7100 283° West 530 610 33,000  Level FlightAware Transoceanic
Sun 09:36:00 PM 44.8349 -168.9244 283° West 530 610 33,000  Level FlightAware Transoceanic
Sun 09:37:00 PM 44.8688 -169.1390 282° West 530 610 33,000  Level FlightAware Transoceanic
Sun 09:38:00 PM 44.9022 -169.3539 282° West 530 610 33,000  Level FlightAware Transoceanic
Sun 09:39:00 PM 44.9352 -169.5690 282° West 530 610 33,000  Level FlightAware Transoceanic
Sun 09:40:00 PM 44.9678 -169.7844 282° West 530 610 33,000  Level FlightAware Transoceanic
Sun 09:41:00 PM 45.0000 -170.0000 274° West 530 610 33,000  Level FlightAware Transoceanic
Sun 09:42:00 PM 45.0087 -170.2036 273° West 530 610 33,000  Level FlightAware Transoceanic
Sun 09:42:10 PM 45.0000 -170.0000 274° West 523 602 33,000  Level Oakland Oceanic (ODAPS)
Sun 09:43:00 PM 45.0171 -170.4073 273° West 530 610 33,000  Level FlightAware Transoceanic
Sun 09:44:00 PM 45.0251 -170.6110 273° West 530 610 33,000  Level FlightAware Transoceanic
Sun 09:45:00 PM 45.0327 -170.8147 273° West 530 610 33,000  Level FlightAware Transoceanic
Sun 09:46:00 PM 45.0400 -171.0186 273° West 530 610 33,000  Level FlightAware Transoceanic
Sun 09:47:00 PM 45.0469 -171.2224 273° West 530 610 33,000  Level FlightAware Transoceanic
Sun 09:48:00 PM 45.0535 -171.4263 273° West 523 602 33,000  Level FlightAware Transoceanic
Sun 09:49:00 PM 45.0597 -171.6303 272° West 523 602 33,000  Level FlightAware Transoceanic
Sun 09:50:00 PM 45.0655 -171.8343 272° West 523 602 33,000  Level FlightAware Transoceanic
Sun 09:51:00 PM 45.0709 -172.0384 272° West 523 602 33,000  Level FlightAware Transoceanic
Sun 09:52:00 PM 45.0760 -172.2424 272° West 523 602 33,000  Level FlightAware Transoceanic
Sun 09:53:00 PM 45.0808 -172.4466 272° West 523 602 33,000  Level FlightAware Transoceanic
Sun 09:54:00 PM 45.0851 -172.6507 272° West 523 602 33,000  Level FlightAware Transoceanic
Sun 09:55:00 PM 45.0891 -172.8549 272° West 523 602 33,000 612 Level FlightAware Transoceanic
Sun 09:55:38 PM 45.0833 -172.8500 272° West 518 596 34,000  Climbing Oakland Oceanic (ODAPS)
Sun 09:56:00 PM 45.0928 -173.0591 271° West 523 602 33,000 -732 Descending FlightAware Transoceanic
Sun 09:57:00 PM 45.0961 -173.2634 271° West 523 602 33,000  Level FlightAware Transoceanic
Sun 09:58:00 PM 45.0990 -173.4676 271° West 523 602 33,000  Level FlightAware Transoceanic
Sun 09:59:00 PM 45.1015 -173.6719 271° West 523 602 33,000  Level FlightAware Transoceanic
Sun 10:00:00 PM 45.1037 -173.8762 271° West 523 602 33,000  Level FlightAware Transoceanic
Sun 10:01:00 PM 45.1055 -174.0805 271° West 523 602 33,000 500 Level FlightAware Transoceanic
Sun 10:02:00 PM 45.1021 -174.2410 271° West 518 596 34,000 500 Climbing FlightAware Transoceanic
Sun 10:03:00 PM 45.1034 -174.4398 270° West 518 596 34,000  Level FlightAware Transoceanic
Sun 10:04:00 PM 45.1044 -174.6386 270° West 518 596 34,000  Level FlightAware Transoceanic
Sun 10:05:00 PM 45.1050 -174.8374 270° West 518 596 34,000  Level FlightAware Transoceanic
Sun 10:06:00 PM 45.1053 -175.0362 270° West 518 596 34,000  Level FlightAware Transoceanic
Sun 10:07:00 PM 45.1052 -175.2350 270° West 518 596 34,000  Level FlightAware Transoceanic
Sun 10:08:00 PM 45.1048 -175.4337 270° West 518 596 34,000  Level FlightAware Transoceanic
Sun 10:09:00 PM 45.1040 -175.6325 270° West 518 596 34,000  Level FlightAware Transoceanic
Sun 10:09:30 PM 45.1000 -175.6500 270° West 513 590 34,000  Level Oakland Oceanic (ODAPS)
Sun 10:10:00 PM 45.1029 -175.8313 269° West 518 596 34,000  Level FlightAware Transoceanic
Sun 10:11:00 PM 45.1014 -176.0301 269° West 518 596 34,000  Level FlightAware Transoceanic
Sun 10:12:00 PM 45.0996 -176.2289 269° West 518 596 34,000  Level FlightAware Transoceanic
Sun 10:13:00 PM 45.0975 -176.4276 269° West 518 596 34,000  Level FlightAware Transoceanic
Sun 10:14:00 PM 45.0950 -176.6263 269° West 518 596 34,000  Level FlightAware Transoceanic
Sun 10:15:00 PM 45.0891 -176.8377 269° West 513 590 34,000  Level FlightAware Transoceanic
Sun 10:16:00 PM 45.0861 -177.0356 269° West 513 590 34,000  Level FlightAware Transoceanic
Sun 10:17:00 PM 45.0827 -177.2334 269° West 513 590 34,000  Level FlightAware Transoceanic
Sun 10:18:00 PM 45.0791 -177.4313 268° West 513 590 34,000  Level FlightAware Transoceanic
Sun 10:19:00 PM 45.0750 -177.6291 268° West 513 590 34,000  Level FlightAware Transoceanic
Sun 10:20:00 PM 45.0706 -177.8269 268° West 513 590 34,000  Level FlightAware Transoceanic
Sun 10:21:00 PM 45.0659 -178.0247 268° West 513 590 34,000  Level FlightAware Transoceanic
Sun 10:22:00 PM 45.0609 -178.2224 268° West 513 590 34,000  Level FlightAware Transoceanic
Sun 10:23:00 PM 45.0555 -178.4201 268° West 513 590 34,000  Level FlightAware Transoceanic
Sun 10:23:22 PM 45.0500 -178.4667 268° West 519 597 34,000  Level Oakland Oceanic (ODAPS)
Sun 10:24:00 PM 45.0497 -178.6177 268° West 513 590 34,000  Level FlightAware Transoceanic
Sun 10:25:00 PM 45.0436 -178.8153 267° West 513 590 34,000  Level FlightAware Transoceanic
Sun 10:26:00 PM 45.0372 -179.0129 267° West 513 590 34,000  Level FlightAware Transoceanic
Sun 10:27:00 PM 45.0305 -179.2104 267° West 513 590 34,000  Level FlightAware Transoceanic
Sun 10:28:00 PM 45.0233 -179.4079 267° West 513 590 34,000  Level FlightAware Transoceanic
Sun 10:29:00 PM 45.0144 -179.6169 267° West 519 597 34,000  Level FlightAware Transoceanic
Sun 10:30:00 PM 45.0074 -179.8085 267° West 519 597 34,000  Level FlightAware Transoceanic
Sun 10:30:56 PM 45.0000 180.0000 274° West 506 582 34,000  Level Oakland Oceanic (ODAPS)
Sun 10:31:00 PM 45.0000 -180.0000 274° West 519 597 34,000  Level FlightAware Transoceanic
Sun 10:32:00 PM 45.0089 179.7922 273° West 519 597 34,000  Level FlightAware Transoceanic
Sun 10:33:00 PM 45.0174 179.5843 273° West 519 597 34,000  Level FlightAware Transoceanic
Sun 10:34:00 PM 45.0256 179.3763 273° West 519 597 34,000  Level FlightAware Transoceanic
Sun 10:35:00 PM 45.0333 179.1683 273° West 519 597 34,000  Level FlightAware Transoceanic
Sun 10:36:00 PM 45.0407 178.9602 273° West 519 597 34,000  Level FlightAware Transoceanic
Sun 10:37:00 PM 45.0461 178.8020 273° West 506 582 34,000  Level FlightAware Transoceanic
Sun 10:37:14 PM 45.0500 178.7667 273° West 504 580 34,000  Level Oakland Oceanic (ODAPS)
Sun 10:38:00 PM 45.0526 178.6022 273° West 506 582 34,000  Level FlightAware Transoceanic
Sun 10:39:00 PM 45.0587 178.4023 272° West 506 582 34,000  Level FlightAware Transoceanic
Sun 10:40:00 PM 45.0644 178.2024 272° West 506 582 34,000  Level FlightAware Transoceanic
Sun 10:41:00 PM 45.0699 178.0025 272° West 506 582 34,000  Level FlightAware Transoceanic
Sun 10:42:00 PM 45.0749 177.8024 272° West 506 582 34,000  Level FlightAware Transoceanic
Sun 10:43:00 PM 45.0827 177.5718 272° West 504 580 34,000  Level FlightAware Transoceanic
Sun 10:44:00 PM 45.0869 177.3725 272° West 504 580 34,000  Level FlightAware Transoceanic
Sun 10:45:00 PM 45.0908 177.1732 272° West 504 580 34,000  Level FlightAware Transoceanic
Sun 10:46:00 PM 45.0944 176.9739 271° West 504 580 34,000  Level FlightAware Transoceanic
Sun 10:47:00 PM 45.0976 176.7745 271° West 504 580 34,000  Level FlightAware Transoceanic
Sun 10:48:00 PM 45.1004 176.5752 271° West 504 580 34,000  Level FlightAware Transoceanic
Sun 10:49:00 PM 45.1030 176.3758 271° West 504 580 34,000  Level FlightAware Transoceanic
Sun 10:50:00 PM 45.1051 176.1764 271° West 504 580 34,000  Level FlightAware Transoceanic
Sun 10:51:00 PM 45.1069 175.9770 271° West 504 580 34,000  Level FlightAware Transoceanic
Sun 10:51:11 PM 45.1000 176.0667 271° West 496 571 34,000  Level Oakland Oceanic (ODAPS)
Sun 10:52:00 PM 45.1084 175.7775 271° West 504 580 34,000  Level FlightAware Transoceanic
Sun 10:53:00 PM 45.1095 175.5781 270° West 504 580 34,000  Level FlightAware Transoceanic
Sun 10:54:00 PM 45.1103 175.3786 270° West 504 580 34,000  Level FlightAware Transoceanic
Sun 10:55:00 PM 45.1107 175.1792 270° West 504 580 34,000  Level FlightAware Transoceanic
Sun 10:56:00 PM 45.1108 174.9798 270° West 504 580 34,000  Level FlightAware Transoceanic
Sun 10:57:00 PM 45.1057 174.8914 270° West 496 571 34,000  Level FlightAware Transoceanic
Sun 10:58:00 PM 45.1055 174.6955 270° West 496 571 34,000  Level FlightAware Transoceanic
Sun 10:59:00 PM 45.1050 174.4996 270° West 496 571 34,000  Level FlightAware Transoceanic
Sun 11:00:00 PM 45.1041 174.3037 270° West 496 571 34,000  Level FlightAware Transoceanic
Sun 11:01:00 PM 45.1029 174.1078 269° West 496 571 34,000  Level FlightAware Transoceanic
Sun 11:02:00 PM 45.1013 173.9119 269° West 496 571 34,000  Level FlightAware Transoceanic
Sun 11:03:00 PM 45.0994 173.7161 269° West 496 571 34,000  Level FlightAware Transoceanic
Sun 11:04:00 PM 45.0972 173.5202 269° West 496 571 34,000  Level FlightAware Transoceanic
Sun 11:05:00 PM 45.0946 173.3244 269° West 496 571 34,000  Level FlightAware Transoceanic
Sun 11:05:03 PM 45.1000 173.4000 269° West 488 562 34,000  Level Oakland Oceanic (ODAPS)
Sun 11:06:00 PM 45.0917 173.1286 269° West 496 571 34,000  Level FlightAware Transoceanic
Sun 11:07:00 PM 45.0885 172.9328 269° West 496 571 34,000  Level FlightAware Transoceanic
Sun 11:08:00 PM 45.0849 172.7370 268° West 496 571 34,000  Level FlightAware Transoceanic
Sun 11:09:00 PM 45.0811 172.5413 268° West 496 571 34,000  Level FlightAware Transoceanic
Sun 11:10:00 PM 45.0768 172.3456 268° West 496 571 34,000  Level FlightAware Transoceanic
Sun 11:11:00 PM 45.0762 172.1987 268° West 488 562 34,000  Level FlightAware Transoceanic
Sun 11:12:00 PM 45.0710 171.9986 268° West 488 562 34,000  Level FlightAware Transoceanic
Sun 11:13:00 PM 45.0655 171.7985 268° West 488 562 34,000  Level FlightAware Transoceanic
Sun 11:14:00 PM 45.0596 171.5985 268° West 488 562 34,000  Level FlightAware Transoceanic
Sun 11:15:00 PM 45.0534 171.3985 267° West 488 562 34,000  Level FlightAware Transoceanic
Sun 11:16:00 PM 45.0468 171.1986 267° West 488 562 34,000  Level FlightAware Transoceanic
Sun 11:17:00 PM 45.0399 170.9987 267° West 488 562 34,000  Level FlightAware Transoceanic
Sun 11:18:00 PM 45.0326 170.7988 267° West 488 562 34,000  Level FlightAware Transoceanic
Sun 11:18:50 PM 45.0333 170.7333 267° West 496 571 34,000  Level Oakland Oceanic (ODAPS)
Sun 11:19:00 PM 45.0250 170.5990 267° West 488 562 34,000  Level FlightAware Transoceanic
Sun 11:20:00 PM 45.0170 170.3993 267° West 488 562 34,000  Level FlightAware Transoceanic
Sun 11:21:00 PM 45.0087 170.1996 267° West 488 562 34,000  Level FlightAware Transoceanic
Sun 11:22:00 PM 45.0000 170.0000 266° West 488 562 34,000  Level FlightAware Transoceanic
Sun 11:22:39 PM 45.0000 170.0000 266° West 487 560 34,000  Level Oakland Oceanic (ODAPS)
Sun 11:23:00 PM 44.9891 169.8049 265° West 488 562 34,000  Level FlightAware Transoceanic
Sun 11:24:00 PM 44.9779 169.6098 265° West 488 562 34,000  Level FlightAware Transoceanic
Sun 11:25:00 PM 44.9669 169.4259 265° West 496 571 34,000  Level FlightAware Transoceanic
Sun 11:26:00 PM 44.9553 169.2347 265° West 496 571 34,000  Level FlightAware Transoceanic
Sun 11:27:00 PM 44.9433 169.0436 265° West 496 571 34,000  Level FlightAware Transoceanic
Sun 11:28:00 PM 44.9324 168.8737 265° West 487 560 34,000  Level FlightAware Transoceanic
Sun 11:29:00 PM 44.9200 168.6863 265° West 487 560 34,000  Level FlightAware Transoceanic
Sun 11:30:00 PM 44.9074 168.4989 264° West 487 560 34,000  Level FlightAware Transoceanic
Sun 11:31:00 PM 44.8944 168.3116 264° West 487 560 34,000  Level FlightAware Transoceanic
Sun 11:32:00 PM 44.8812 168.1244 264° West 487 560 34,000  Level FlightAware Transoceanic
Sun 11:32:46 PM 44.8833 168.0500 264° West 483 556 34,000  Level Oakland Oceanic (ODAPS)
Sun 11:33:00 PM 44.8676 167.9373 264° West 487 560 34,000  Level FlightAware Transoceanic
Sun 11:34:00 PM 44.8537 167.7503 264° West 487 560 34,000  Level FlightAware Transoceanic
Sun 11:35:00 PM 44.8396 167.5634 264° West 487 560 34,000  Level FlightAware Transoceanic
Sun 11:36:00 PM 44.8251 167.3766 264° West 487 560 34,000  Level FlightAware Transoceanic
Sun 11:37:00 PM 44.8103 167.1898 264° West 487 560 34,000  Level FlightAware Transoceanic
Sun 11:38:00 PM 44.7952 167.0032 263° West 487 560 34,000  Level FlightAware Transoceanic
Sun 11:39:00 PM 44.7809 166.7541 263° West 483 556 34,000  Level FlightAware Transoceanic
Sun 11:40:00 PM 44.7651 166.5694 263° West 483 556 34,000  Level FlightAware Transoceanic
Sun 11:41:00 PM 44.7490 166.3847 263° West 483 556 34,000  Level FlightAware Transoceanic
Sun 11:42:00 PM 44.7325 166.2002 263° West 483 556 34,000  Level FlightAware Transoceanic
Sun 11:43:00 PM 44.7158 166.0158 263° West 483 556 34,000  Level FlightAware Transoceanic
Sun 11:44:00 PM 44.6988 165.8314 263° West 483 556 34,000  Level FlightAware Transoceanic
Sun 11:45:00 PM 44.6815 165.6472 262° West 483 556 34,000  Level FlightAware Transoceanic
Sun 11:46:00 PM 44.6639 165.4631 262° West 483 556 34,000  Level FlightAware Transoceanic
Sun 11:46:34 PM 44.6500 165.3667 262° West 482 555 34,000  Level Oakland Oceanic (ODAPS)
Sun 11:47:00 PM 44.6460 165.2791 262° West 483 556 34,000  Level FlightAware Transoceanic
Sun 11:48:00 PM 44.6278 165.0953 262° West 483 556 34,000  Level FlightAware Transoceanic
Sun 11:49:00 PM 44.6093 164.9115 262° West 483 556 34,000  Level FlightAware Transoceanic
Sun 11:50:00 PM 44.5905 164.7279 262° West 483 556 34,000  Level FlightAware Transoceanic
Sun 11:51:00 PM 44.5714 164.5444 262° West 483 556 34,000  Level FlightAware Transoceanic
Sun 11:52:00 PM 44.5362 164.2469 261° West 482 555 34,000  Level FlightAware Transoceanic
Sun 11:53:00 PM 44.5162 164.0607 261° West 482 555 34,000  Level FlightAware Transoceanic
Sun 11:54:00 PM 44.4959 163.8746 261° West 482 555 34,000  Level FlightAware Transoceanic
Sun 11:55:00 PM 44.4753 163.6887 261° West 482 555 34,000  Level FlightAware Transoceanic
Sun 11:56:00 PM 44.4543 163.5029 261° West 482 555 34,000  Level FlightAware Transoceanic
Sun 11:57:00 PM 44.4331 163.3172 261° West 482 555 34,000  Level FlightAware Transoceanic
Sun 11:58:00 PM 44.4116 163.1317 261° West 482 555 34,000  Level FlightAware Transoceanic
Sun 11:59:00 PM 44.3897 162.9463 261° West 482 555 34,000  Level FlightAware Transoceanic
Mon 12:00:00 AM 44.3676 162.7610 260° West 482 555 34,000  Level FlightAware Transoceanic
Mon 12:01:00 AM 44.3452 162.5759 260° West 482 555 34,000  Level FlightAware Transoceanic
Mon 12:02:00 AM 44.3224 162.3909 260° West 482 555 34,000  Level FlightAware Transoceanic
Mon 12:03:00 AM 44.2994 162.2061 260° West 482 555 34,000  Level FlightAware Transoceanic
Mon 12:04:00 AM 44.2761 162.0214 260° West 482 555 34,000  Level FlightAware Transoceanic
Mon 12:05:00 AM 44.2525 161.8369 260° West 482 555 34,000  Level FlightAware Transoceanic
Mon 12:06:00 AM 44.2285 161.6525 260° West 482 555 34,000  Level FlightAware Transoceanic
Mon 12:07:00 AM 44.2043 161.4683 260° West 482 555 34,000  Level FlightAware Transoceanic
Mon 12:08:00 AM 44.1798 161.2842 259° West 482 555 34,000  Level FlightAware Transoceanic
Mon 12:09:00 AM 44.1550 161.1003 259° West 482 555 34,000  Level FlightAware Transoceanic
Mon 12:10:00 AM 44.1299 160.9165 259° West 482 555 34,000  Level FlightAware Transoceanic
Mon 12:11:00 AM 44.1045 160.7329 259° West 482 555 34,000  Level FlightAware Transoceanic
Mon 12:12:00 AM 44.0788 160.5494 259° West 482 555 34,000  Level FlightAware Transoceanic
Mon 12:13:00 AM 44.0528 160.3661 259° West 482 555 34,000  Level FlightAware Transoceanic
Mon 12:14:00 AM 44.0266 160.1830 259° West 482 555 34,000  Level FlightAware Transoceanic
Mon 12:15:00 AM 44.0000 160.0000 241° Southwest 482 555 34,000  Level FlightAware Transoceanic
Mon 12:16:00 AM 43.9391 159.8481 241° Southwest 482 555 34,000  Level FlightAware Transoceanic
Mon 12:17:00 AM 43.8780 159.6965 241° Southwest 482 555 34,000  Level FlightAware Transoceanic
Mon 12:18:00 AM 43.8167 159.5452 241° Southwest 482 555 34,000  Level FlightAware Transoceanic
Mon 12:19:00 AM 43.7552 159.3943 241° Southwest 482 555 34,000  Level FlightAware Transoceanic
Mon 12:20:00 AM 43.6935 159.2436 240° Southwest 482 555 34,000  Level FlightAware Transoceanic
Mon 12:21:00 AM 43.6316 159.0933 240° Southwest 482 555 34,000  Level FlightAware Transoceanic
Mon 12:22:00 AM 43.5695 158.9432 240° Southwest 482 555 34,000  Level FlightAware Transoceanic
Mon 12:23:00 AM 43.5072 158.7935 240° Southwest 482 555 34,000  Level FlightAware Transoceanic
Mon 12:24:00 AM 43.4447 158.6441 240° Southwest 482 555 34,000  Level FlightAware Transoceanic
Mon 12:25:00 AM 43.3821 158.4950 240° Southwest 482 555 34,000  Level FlightAware Transoceanic
Mon 12:26:00 AM 43.3192 158.3462 240° Southwest 482 555 34,000  Level FlightAware Transoceanic
Mon 12:27:00 AM 43.2561 158.1977 240° Southwest 482 555 34,000  Level FlightAware Transoceanic
Mon 12:28:00 AM 43.1929 158.0495 240° Southwest 482 555 34,000  Level FlightAware Transoceanic
Mon 12:29:00 AM 43.1294 157.9016 239° Southwest 482 555 34,000  Level FlightAware Transoceanic
Mon 12:30:00 AM 43.0658 157.7541 239° Southwest 482 555 34,000  Level FlightAware Transoceanic
Mon 12:31:00 AM 43.0020 157.6068 239° Southwest 482 555 34,000  Level FlightAware Transoceanic
Mon 12:32:00 AM 42.9380 157.4598 239° Southwest 482 555 34,000  Level FlightAware Transoceanic
Mon 12:33:00 AM 42.8737 157.3132 239° Southwest 482 555 34,000  Level FlightAware Transoceanic
Mon 12:34:00 AM 42.8094 157.1668 239° Southwest 482 555 34,000  Level FlightAware Transoceanic
Mon 12:35:00 AM 42.7448 157.0208 239° Southwest 482 555 34,000  Level FlightAware Transoceanic
Mon 12:36:00 AM 42.6800 156.8751 239° Southwest 482 555 34,000  Level FlightAware Transoceanic
Mon 12:37:00 AM 42.6151 156.7296 239° Southwest 482 555 34,000  Level FlightAware Transoceanic
Mon 12:38:00 AM 42.5499 156.5845 239° Southwest 482 555 34,000  Level FlightAware Transoceanic
Mon 12:39:00 AM 42.4846 156.4397 238° Southwest 482 555 34,000  Level FlightAware Transoceanic
Mon 12:40:00 AM 42.4192 156.2952 238° Southwest 482 555 34,000  Level FlightAware Transoceanic
Mon 12:41:00 AM 42.3535 156.1509 238° Southwest 482 555 34,000  Level FlightAware Transoceanic
Mon 12:42:00 AM 42.2876 156.0070 238° Southwest 482 555 34,000  Level FlightAware Transoceanic
Mon 12:43:00 AM 42.2216 155.8634 238° Southwest 482 555 34,000  Level FlightAware Transoceanic
Mon 12:44:00 AM 42.1554 155.7201 238° Southwest 482 555 34,000  Level FlightAware Transoceanic
Mon 12:45:00 AM 42.0890 155.5771 238° Southwest 482 555 34,000  Level FlightAware Transoceanic
Mon 12:46:00 AM 42.0224 155.4343 238° Southwest 482 555 34,000  Level FlightAware Transoceanic
Mon 12:47:00 AM 41.9557 155.2919 238° Southwest 482 555 34,000  Level FlightAware Transoceanic
Mon 12:48:00 AM 41.8888 155.1498 238° Southwest 482 555 34,000  Level FlightAware Transoceanic
Mon 12:49:00 AM 41.8217 155.0080 238° Southwest 482 555 34,000  Level FlightAware Transoceanic
Mon 12:50:00 AM 41.7544 154.8664 237° Southwest 482 555 34,000  Level FlightAware Transoceanic
Mon 12:51:00 AM 41.6870 154.7252 237° Southwest 482 555 34,000  Level FlightAware Transoceanic
Mon 12:52:00 AM 41.6194 154.5843 237° Southwest 482 555 34,000  Level FlightAware Transoceanic
Mon 12:53:00 AM 41.5516 154.4436 237° Southwest 482 555 34,000  Level FlightAware Transoceanic
Mon 12:54:00 AM 41.4836 154.3033 237° Southwest 482 555 34,000  Level FlightAware Transoceanic
Mon 12:55:00 AM 41.4155 154.1632 237° Southwest 482 555 34,000  Level FlightAware Transoceanic
Mon 12:56:00 AM 41.3472 154.0235 237° Southwest 482 555 34,000  Level FlightAware Transoceanic
Mon 12:57:00 AM 41.2787 153.8840 237° Southwest 482 555 34,000  Level FlightAware Transoceanic
Mon 12:58:00 AM 41.2101 153.7448 237° Southwest 482 555 34,000  Level FlightAware Transoceanic
Mon 12:59:00 AM 41.1413 153.6060 237° Southwest 482 555 34,000  Level FlightAware Transoceanic
Mon 01:00:00 AM 41.0723 153.4674 237° Southwest 482 555 34,000  Level FlightAware Transoceanic
Mon 01:01:00 AM 41.0032 153.3291 236° Southwest 482 555 34,000  Level FlightAware Transoceanic
Mon 01:02:00 AM 40.9339 153.1911 236° Southwest 482 555 34,000  Level FlightAware Transoceanic
Mon 01:03:00 AM 40.8644 153.0534 236° Southwest 482 555 34,000  Level FlightAware Transoceanic
Mon 01:04:00 AM 40.7948 152.9159 236° Southwest 482 555 34,000  Level FlightAware Transoceanic
Mon 01:05:00 AM 40.7250 152.7788 236° Southwest 482 555 34,000  Level FlightAware Transoceanic
Mon 01:06:00 AM 40.6551 152.6420 236° Southwest 482 555 34,000  Level FlightAware Transoceanic
Mon 01:07:00 AM 40.5849 152.5054 236° Southwest 482 555 34,000  Level FlightAware Transoceanic
Mon 01:08:00 AM 40.5147 152.3691 236° Southwest 482 555 34,000  Level FlightAware Transoceanic
Mon 01:09:00 AM 40.4442 152.2331 236° Southwest 482 555 34,000  Level FlightAware Transoceanic
Mon 01:10:00 AM 40.3737 152.0974 236° Southwest 482 555 34,000  Level FlightAware Transoceanic
Mon 01:11:00 AM 40.3029 151.9620 236° Southwest 482 555 34,000  Level FlightAware Transoceanic
Mon 01:12:00 AM 40.2320 151.8268 235° Southwest 482 555 34,000  Level FlightAware Transoceanic
Mon 01:13:00 AM 40.1609 151.6920 235° Southwest 482 555 34,000  Level FlightAware Transoceanic
Mon 01:14:00 AM 40.0897 151.5574 235° Southwest 482 555 34,000  Level FlightAware Transoceanic
Mon 01:15:00 AM 40.0183 151.4231 235° Southwest 482 555 34,000  Level FlightAware Transoceanic
Mon 01:16:00 AM 39.9468 151.2891 235° Southwest 482 555 34,000  Level FlightAware Transoceanic
Mon 01:17:00 AM 39.8751 151.1554 235° Southwest 482 555 34,000  Level FlightAware Transoceanic
Mon 01:18:00 AM 39.8033 151.0219 235° Southwest 482 555 34,000  Level FlightAware Transoceanic
Mon 01:19:00 AM 39.7313 150.8888 235° Southwest 482 555 34,000  Level FlightAware Transoceanic
Mon 01:20:00 AM 39.6592 150.7559 235° Southwest 482 555 34,000  Level FlightAware Transoceanic
Mon 01:21:00 AM 39.5869 150.6232 235° Southwest 482 555 34,000  Level FlightAware Transoceanic
Mon 01:22:00 AM 39.5144 150.4909 235° Southwest 482 555 34,000  Level FlightAware Transoceanic
Mon 01:23:00 AM 39.4418 150.3588 235° Southwest 482 555 34,000  Level FlightAware Transoceanic
Mon 01:24:00 AM 39.3691 150.2271 234° Southwest 482 555 34,000  Level FlightAware Transoceanic
Mon 01:25:00 AM 39.2962 150.0955 234° Southwest 482 555 34,000  Level FlightAware Transoceanic
Mon 01:26:00 AM 39.2232 149.9643 234° Southwest 482 555 34,000 70 Level FlightAware Transoceanic
Mon 01:27:00 AM 39.1529 149.8225 237° Southwest  Level FlightAware Approximate
Mon 01:28:00 AM 39.1499 149.8165 240° Southwest  Level FlightAware Approximate
Mon 01:29:00 AM 39.0852 149.6704 240° Southwest  Level FlightAware Approximate
Mon 01:30:00 AM 39.0204 149.5246 240° Southwest  Level FlightAware Approximate
Mon 01:31:00 AM 38.9553 149.3791 240° Southwest  Level FlightAware Approximate
Mon 01:32:00 AM 38.8900 149.2339 240° Southwest  Level FlightAware Approximate
Mon 01:33:00 AM 38.8246 149.0889 240° Southwest  Level FlightAware Approximate
Mon 01:34:00 AM 38.7590 148.9442 240° Southwest  Level FlightAware Approximate
Mon 01:35:00 AM 38.6933 148.7998 240° Southwest  Level FlightAware Approximate
Mon 01:36:00 AM 38.6273 148.6556 240° Southwest  Level FlightAware Approximate
Mon 01:37:00 AM 38.5612 148.5117 240° Southwest  Level FlightAware Approximate
Mon 01:38:00 AM 38.4949 148.3681 240° Southwest  Level FlightAware Approximate
Mon 01:39:00 AM 38.4284 148.2247 239° Southwest  Level FlightAware Approximate
Mon 01:40:00 AM 38.3618 148.0816 239° Southwest  Level FlightAware Approximate
Mon 01:41:00 AM 38.2949 147.9387 239° Southwest  Level FlightAware Approximate
Mon 01:42:00 AM 38.2279 147.7961 239° Southwest  Level FlightAware Approximate
Mon 01:43:00 AM 38.1608 147.6538 239° Southwest  Level FlightAware Approximate
Mon 01:44:00 AM 38.0934 147.5117 239° Southwest  Level FlightAware Approximate
Mon 01:45:00 AM 38.0259 147.3699 239° Southwest  Level FlightAware Approximate
Mon 01:46:00 AM 37.9582 147.2284 239° Southwest  Level FlightAware Approximate
Mon 01:47:00 AM 37.8904 147.0871 239° Southwest  Level FlightAware Approximate
Mon 01:48:00 AM 37.8224 146.9461 239° Southwest  Level FlightAware Approximate
Mon 01:49:00 AM 37.7542 146.8053 239° Southwest  Level FlightAware Approximate
Mon 01:50:00 AM 37.6858 146.6648 238° Southwest  Level FlightAware Approximate
Mon 01:51:00 AM 37.6173 146.5246 238° Southwest  Level FlightAware Approximate
Mon 01:52:00 AM 37.5486 146.3846 238° Southwest  Level FlightAware Approximate
Mon 01:53:00 AM 37.4798 146.2449 238° Southwest  Level FlightAware Approximate
Mon 01:54:00 AM 37.4107 146.1054 238° Southwest  Level FlightAware Approximate
Mon 01:55:00 AM 37.3415 145.9662 238° Southwest  Level FlightAware Approximate
Mon 01:56:00 AM 37.2722 145.8273 238° Southwest  Level FlightAware Approximate
Mon 01:57:00 AM 37.2027 145.6886 238° Southwest  Level FlightAware Approximate
Mon 01:58:00 AM 37.1712 145.5328 263° West  Level FlightAware Approximate
Mon 01:59:00 AM 37.1543 145.3705 263° West  Level FlightAware Approximate
Mon 02:00:00 AM 37.1371 145.2082 262° West  Level FlightAware Approximate
Mon 02:01:00 AM 37.1197 145.0460 262° West  Level FlightAware Approximate
Mon 02:02:00 AM 37.1021 144.8839 262° West  Level FlightAware Approximate
Mon 02:03:00 AM 37.0842 144.7219 262° West  Level FlightAware Approximate
Mon 02:04:00 AM 37.0662 144.5599 262° West  Level FlightAware Approximate
Mon 02:05:00 AM 37.0479 144.3981 262° West  Level FlightAware Approximate
Mon 02:06:00 AM 37.0294 144.2363 262° West  Level FlightAware Approximate
Mon 02:07:00 AM 37.0107 144.0745 262° West  Level FlightAware Approximate
Mon 02:08:00 AM 36.9596 143.9333 225° Southwest  Level FlightAware Approximate
Mon 02:09:00 AM 36.8667 143.8186 225° Southwest  Level FlightAware Approximate
Mon 02:10:00 AM 36.7738 143.7043 225° Southwest  Level FlightAware Approximate
Mon 02:11:00 AM 36.6807 143.5902 225° Southwest  Level FlightAware Approximate
Mon 02:12:00 AM 36.5875 143.4763 224° Southwest  Level FlightAware Approximate
Mon 02:13:00 AM 36.4942 143.3628 224° Southwest  Level FlightAware Approximate
Mon 02:14:00 AM 36.4008 143.2495 224° Southwest  Level FlightAware Approximate
Mon 02:15:00 AM 36.3073 143.1365 224° Southwest  Level FlightAware Approximate
Mon 02:16:00 AM 36.2137 143.0238 224° Southwest  Level FlightAware Approximate
Mon 02:17:00 AM 36.1200 142.9113 224° Southwest  Level FlightAware Approximate
Mon 02:18:00 AM 36.0262 142.7992 224° Southwest  Level FlightAware Approximate
Mon 02:19:00 AM 35.9323 142.6872 224° Southwest  Level FlightAware Approximate
Mon 02:20:00 AM 35.8383 142.5756 224° Southwest  Level FlightAware Approximate
Mon 02:21:00 AM 35.7610 142.4468 236° Southwest  Level FlightAware Approximate
Mon 02:21:57 AM 36.0930 143.1110 236° Southwest 419 482 38,000  Level FlightAware ADS-B
Mon 02:22:00 AM 35.6887 142.3130 236° Southwest  Level FlightAware Approximate
Mon 02:23:00 AM 35.6162 142.1795 236° Southwest  Level FlightAware Approximate
Mon 02:23:02 AM 36.0230 142.9700 238° Southwest 421 484 38,000  Level FlightAware ADS-B
Mon 02:24:07 AM 35.9560 142.8350 239° Southwest 426 490 38,000  Level FlightAware ADS-B
Mon 02:24:47 AM 35.9180 142.7580 239° Southwest 426 490 38,000  Level FlightAware ADS-B
Mon 02:25:27 AM 35.8770 142.6770 238° Southwest 425 489 38,000  Level FlightAware ADS-B
Mon 02:26:07 AM 35.8320 142.5860 239° Southwest 424 488 38,000  Level FlightAware ADS-B
Mon 02:26:47 AM 35.8000 142.5250 237° Southwest 423 487 38,000  Level FlightAware ADS-B
Mon 02:27:37 AM 35.7390 142.4100 237° Southwest 418 481 38,000  Level FlightAware ADS-B
Mon 02:28:17 AM 35.6940 142.3270 236° Southwest 418 481 38,000  Level FlightAware ADS-B
Mon 02:29:02 AM 35.6450 142.2340 237° Southwest 419 482 38,000  Level FlightAware ADS-B
Mon 02:29:47 AM 35.6010 142.1520 237° Southwest 420 483 38,000  Level FlightAware ADS-B
Mon 02:30:42 AM 35.5370 142.0330 237° Southwest 427 491 38,000  Level FlightAware ADS-B
Mon 02:31:22 AM 35.4930 141.9530 236° Southwest 428 493 38,000  Level FlightAware ADS-B
Mon 02:32:07 AM 35.4490 141.8700 237° Southwest 429 494 38,000  Level FlightAware ADS-B
Mon 02:32:47 AM 35.4000 141.7800 236° Southwest 430 495 38,000  Level FlightAware ADS-B
Mon 02:33:32 AM 35.3510 141.6910 236° Southwest 430 495 38,000  Level FlightAware ADS-B
Mon 02:34:12 AM 35.3090 141.6140 236° Southwest 430 495 38,000  Level FlightAware ADS-B
Mon 02:34:52 AM 35.2650 141.5340 236° Southwest 431 496 38,000  Level FlightAware ADS-B
Mon 02:35:37 AM 35.2120 141.4360 237° Southwest 433 498 38,000  Level FlightAware ADS-B
Mon 02:36:17 AM 35.1680 141.3560 236° Southwest 433 498 38,000  Level FlightAware ADS-B
Mon 02:37:02 AM 35.1200 141.2680 236° Southwest 436 502 38,000  Level FlightAware ADS-B
Mon 02:37:42 AM 35.0740 141.1850 236° Southwest 437 503 38,000  Level FlightAware ADS-B
Mon 02:38:22 AM 35.0300 141.1060 236° Southwest 438 504 38,000  Level FlightAware ADS-B
Mon 02:39:07 AM 34.9790 141.0140 236° Southwest 440 506 38,000  Level FlightAware ADS-B
Mon 02:39:47 AM 34.9320 140.9300 236° Southwest 442 509 38,000  Level FlightAware ADS-B
Mon 02:40:27 AM 34.8850 140.8450 236° Southwest 439 505 38,000  Level FlightAware ADS-B
Mon 02:41:12 AM 34.8360 140.7570 236° Southwest 440 506 38,000  Level FlightAware ADS-B
Mon 02:41:52 AM 34.7860 140.6680 236° Southwest 441 507 38,000  Level FlightAware ADS-B
Mon 02:42:37 AM 34.7340 140.5760 235° Southwest 441 507 38,000  Level FlightAware ADS-B
Mon 02:43:17 AM 34.6880 140.4940 236° Southwest 442 509 38,000  Level FlightAware ADS-B
Mon 02:44:02 AM 34.6350 140.4000 236° Southwest 443 510 38,000  Level FlightAware ADS-B
Mon 02:44:42 AM 34.5880 140.3180 235° Southwest 444 511 38,000  Level FlightAware ADS-B
Mon 02:45:22 AM 34.5410 140.2330 236° Southwest 451 519 38,000  Level FlightAware ADS-B
Mon 02:46:07 AM 34.4880 140.1400 235° Southwest 453 521 38,000  Level FlightAware ADS-B
Mon 02:46:47 AM 34.4400 140.0580 235° Southwest 455 524 38,000  Level FlightAware ADS-B
Mon 02:47:27 AM 34.3910 139.9720 235° Southwest 458 527 38,000  Level FlightAware ADS-B
Mon 02:48:12 AM 34.3390 139.8800 236° Southwest 458 527 38,000  Level FlightAware ADS-B
Mon 02:48:52 AM 34.2860 139.7920 234° Southwest 460 529 38,000  Level FlightAware ADS-B
Mon 02:49:37 AM 34.2320 139.7060 233° Southwest 458 527 38,000  Level FlightAware ADS-B
Mon 02:50:12 AM 34.1830 139.6320 231° Southwest 461 531 38,000  Level FlightAware ADS-B
Mon 02:50:57 AM 34.1190 139.5460 228° Southwest 458 527 38,000  Level FlightAware ADS-B
Mon 02:51:42 AM 34.0570 139.4630 228° Southwest 458 527 38,000  Level FlightAware ADS-B
Mon 02:52:22 AM 33.9990 139.3860 228° Southwest 455 524 38,000  Level FlightAware ADS-B
Mon 02:53:07 AM 33.9470 139.2970 235° Southwest 442 509 38,000  Level FlightAware ADS-B
Mon 02:53:42 AM 33.9100 139.2230 239° Southwest 440 506 38,000  Level FlightAware ADS-B
Mon 02:54:27 AM 33.8640 139.1320 239° Southwest 440 506 38,000  Level FlightAware ADS-B
Mon 02:55:12 AM 33.8090 139.0250 238° Southwest 440 506 38,000  Level FlightAware ADS-B
Mon 02:55:47 AM 33.7710 138.9500 239° Southwest 442 509 38,000  Level FlightAware ADS-B
Mon 02:56:47 AM 33.7060 138.8240 238° Southwest 442 509 38,000  Level FlightAware ADS-B
Mon 02:57:32 AM 33.6620 138.7370 239° Southwest 442 509 38,000  Level FlightAware ADS-B
Mon 02:58:07 AM 33.6200 138.6540 239° Southwest 443 510 38,000  Level FlightAware ADS-B
Mon 02:59:17 AM 33.5440 138.5060 238° Southwest 442 509 38,000  Level FlightAware ADS-B
Mon 03:00:17 AM 33.4850 138.3920 238° Southwest 440 506 38,000  Level FlightAware ADS-B
Mon 03:00:57 AM 33.4500 138.3210 239° Southwest 440 506 38,000  Level FlightAware ADS-B
Mon 03:01:57 AM 33.3710 138.1750 237° Southwest 438 504 38,000  Level FlightAware ADS-B
Mon 03:02:32 AM 33.3330 138.1010 238° Southwest 438 504 38,000  Level FlightAware ADS-B
Mon 03:03:32 AM 33.2790 137.9970 238° Southwest 437 503 38,000  Level FlightAware ADS-B
Mon 03:04:27 AM 33.2100 137.8660 238° Southwest 440 506 38,000  Level FlightAware ADS-B
Mon 03:05:12 AM 33.1640 137.7790 238° Southwest 440 506 38,000  Level FlightAware ADS-B
Mon 03:06:07 AM 33.1040 137.6640 238° Southwest 441 507 38,000  Level FlightAware ADS-B
Mon 03:06:52 AM 33.0510 137.5680 237° Southwest 446 513 38,000  Level FlightAware ADS-B
Mon 03:07:32 AM 33.0110 137.4930 238° Southwest 446 513 38,000  Level FlightAware ADS-B
Mon 03:08:12 AM 32.9630 137.4040 237° Southwest 446 513 38,000  Level FlightAware ADS-B
Mon 03:08:52 AM 32.9190 137.3220 237° Southwest 446 513 38,000  Level FlightAware ADS-B
Mon 03:09:37 AM 32.8710 137.2320 238° Southwest 445 512 38,000  Level FlightAware ADS-B
Mon 03:10:12 AM 32.8300 137.1550 238° Southwest 445 512 38,000  Level FlightAware ADS-B
Mon 03:11:12 AM 32.7640 137.0340 237° Southwest 444 511 38,000  Level FlightAware ADS-B
Mon 03:12:12 AM 32.7040 136.9240 237° Southwest 445 512 38,000  Level FlightAware ADS-B
Mon 03:12:52 AM 32.6520 136.8280 237° Southwest 447 514 38,000  Level FlightAware ADS-B
Mon 03:13:37 AM 32.6020 136.7360 237° Southwest 448 516 38,000  Level FlightAware ADS-B
Mon 03:14:32 AM 32.5390 136.6220 237° Southwest 446 513 38,000  Level FlightAware ADS-B
Mon 03:15:12 AM 32.4950 136.5420 237° Southwest 446 513 38,000  Level FlightAware ADS-B
Mon 03:15:52 AM 32.4490 136.4590 237° Southwest 444 511 38,000  Level FlightAware ADS-B
Mon 03:16:37 AM 32.4000 136.3690 237° Southwest 440 506 38,000  Level FlightAware ADS-B
Mon 03:17:17 AM 32.3550 136.2880 237° Southwest 437 503 38,000  Level FlightAware ADS-B
Mon 03:17:57 AM 32.3140 136.2140 237° Southwest 438 504 38,000  Level FlightAware ADS-B
Mon 03:18:57 AM 32.2440 136.0880 237° Southwest 441 507 38,000  Level FlightAware ADS-B
Mon 03:19:52 AM 32.1840 135.9800 237° Southwest 442 509 38,000  Level FlightAware ADS-B
Mon 03:22:00 AM 32.0826 135.6739 249° West  Level Estimated
Mon 03:23:00 AM 32.0348 135.5307 249° West  Level Estimated
Mon 03:23:07 AM 31.9640 135.5880 249° West 445 512 38,000  Level FlightAware ADS-B
Mon 03:25:00 AM 31.8745 135.3184 249° West  Level Estimated
Mon 03:25:37 AM 31.7890 135.2790 249° West 445 512 38,000  Level FlightAware ADS-B
Mon 03:26:22 AM 31.7380 135.1910 236° Southwest 445 512 38,000  Level FlightAware ADS-B
Mon 03:27:02 AM 31.6990 135.1220 236° Southwest 445 512 38,000  Level FlightAware ADS-B
Mon 03:27:52 AM 31.6500 135.0370 236° Southwest 445 512 38,000  Level FlightAware ADS-B
Mon 03:28:32 AM 31.6110 134.9690 236° Southwest 445 512 38,000  Level FlightAware ADS-B
Mon 03:29:12 AM 31.5720 134.9010 236° Southwest 445 512 38,000  Level FlightAware ADS-B
Mon 03:29:52 AM 31.5330 134.8330 236° Southwest 445 512 38,000  Level FlightAware ADS-B
Mon 03:30:32 AM 31.4940 134.7650 236° Southwest 445 512 38,000  Level FlightAware ADS-B
Mon 03:31:12 AM 31.4550 134.6970 236° Southwest 445 512 38,000  Level FlightAware ADS-B
Mon 03:32:02 AM 31.4060 134.6120 236° Southwest 445 512 38,000  Level FlightAware ADS-B
Mon 03:32:42 AM 31.3660 134.5440 235° Southwest 445 512 38,000  Level FlightAware ADS-B
Mon 03:33:22 AM 31.3270 134.4760 236° Southwest 445 512 38,000  Level FlightAware ADS-B
Mon 03:34:02 AM 31.2880 134.4080 236° Southwest 445 512 38,000  Level FlightAware ADS-B
Mon 03:34:42 AM 31.2490 134.3400 236° Southwest 445 512 38,000  Level FlightAware ADS-B
Mon 03:35:32 AM 31.2000 134.2550 236° Southwest 445 512 38,000  Level FlightAware ADS-B
Mon 03:38:00 AM 31.0832 133.9046 249° West  Level Estimated
Mon 03:39:00 AM 31.0356 133.7628 249° West  Level Estimated
Mon 03:40:00 AM 30.9878 133.6212 249° West  Level Estimated
Mon 03:41:00 AM 30.9398 133.4796 248° West  Level Estimated
Mon 03:42:00 AM 30.8918 133.3383 248° West  Level Estimated
Mon 03:43:00 AM 30.8435 133.1970 248° West  Level Estimated
Mon 03:44:00 AM 30.7951 133.0559 248° West  Level Estimated
Mon 03:45:00 AM 30.7466 132.9150 248° West  Level Estimated
Mon 03:46:00 AM 30.6979 132.7742 248° West  Level Estimated
Mon 03:47:00 AM 30.6490 132.6335 248° West  Level Estimated
Mon 03:48:00 AM 30.6000 132.4930 248° West  Level Estimated
Mon 03:49:00 AM 30.5509 132.3526 248° West  Level Estimated
Mon 03:50:00 AM 30.5016 132.2124 248° West  Level Estimated
Mon 03:51:00 AM 30.4521 132.0723 248° West  Level Estimated
Mon 03:52:00 AM 30.4025 131.9323 248° West  Level Estimated
Mon 03:53:00 AM 30.3528 131.7925 248° West  Level Estimated
Mon 03:54:00 AM 30.3029 131.6528 248° West  Level Estimated
Mon 03:55:00 AM 30.2528 131.5133 247° West  Level Estimated
Mon 03:56:00 AM 30.2026 131.3739 247° West  Level Estimated
Mon 03:57:00 AM 30.1523 131.2347 247° West  Level Estimated
Mon 03:58:00 AM 30.1018 131.0956 247° West  Level Estimated
Mon 03:59:00 AM 30.0511 130.9566 247° West  Level Estimated
Mon 04:00:00 AM 30.0004 130.8178 247° West  Level Estimated
Mon 04:01:00 AM 29.9494 130.6792 247° West  Level Estimated
Mon 04:02:00 AM 29.8984 130.5406 247° West  Level Estimated
Mon 04:03:00 AM 29.8472 130.4022 247° West  Level Estimated
Mon 04:04:00 AM 29.7958 130.2640 247° West  Level Estimated
Mon 04:05:00 AM 29.7443 130.1259 247° West  Level Estimated
Mon 04:06:00 AM 29.6926 129.9879 247° West  Level Estimated
Mon 04:07:00 AM 29.6408 129.8501 247° West  Level Estimated
Mon 04:08:00 AM 29.5889 129.7124 247° West  Level Estimated
Mon 04:09:00 AM 29.5368 129.5749 247° West  Level Estimated
Mon 04:10:00 AM 29.4846 129.4375 246° West  Level Estimated
Mon 04:11:00 AM 29.4322 129.3002 246° West  Level Estimated
Mon 04:12:00 AM 29.3797 129.1631 246° West  Level Estimated
Mon 04:13:00 AM 29.3271 129.0262 246° West  Level Estimated
Mon 04:14:00 AM 29.2743 128.8893 246° West  Level Estimated
Mon 04:15:00 AM 29.2214 128.7527 246° West  Level Estimated
Mon 04:16:00 AM 29.1683 128.6161 246° West  Level Estimated
Mon 04:17:00 AM 29.1151 128.4797 246° West  Level Estimated
Mon 04:18:00 AM 29.0618 128.3434 246° West  Level Estimated
Mon 04:19:00 AM 29.0083 128.2073 246° West  Level Estimated
Mon 04:20:00 AM 28.9547 128.0713 246° West  Level Estimated
Mon 04:21:00 AM 28.9010 127.9355 246° West  Level Estimated
Mon 04:22:00 AM 28.8471 127.7998 246° West  Level Estimated
Mon 04:23:00 AM 28.7931 127.6642 246° West  Level Estimated
Mon 04:24:00 AM 28.7389 127.5288 246° West  Level Estimated
Mon 04:25:00 AM 28.6846 127.3935 245° Southwest  Level Estimated
Mon 04:26:00 AM 28.6302 127.2584 245° Southwest  Level Estimated
Mon 04:27:00 AM 28.5757 127.1234 245° Southwest  Level Estimated
Mon 04:28:00 AM 28.5210 126.9885 245° Southwest  Level Estimated
Mon 04:29:00 AM 28.4662 126.8538 245° Southwest  Level Estimated
Mon 04:30:00 AM 28.4112 126.7192 245° Southwest  Level Estimated
Mon 04:31:00 AM 28.3561 126.5848 245° Southwest  Level Estimated
Mon 04:32:00 AM 28.3009 126.4505 245° Southwest  Level Estimated
Mon 04:33:00 AM 28.2455 126.3163 245° Southwest  Level Estimated
Mon 04:34:00 AM 28.1901 126.1823 245° Southwest  Level Estimated
Mon 04:35:00 AM 28.1345 126.0484 245° Southwest  Level Estimated
Mon 04:36:00 AM 28.0787 125.9147 245° Southwest  Level Estimated
Mon 04:37:00 AM 28.0228 125.7811 245° Southwest  Level Estimated
Mon 04:38:00 AM 27.9668 125.6476 245° Southwest  Level Estimated
Mon 04:39:00 AM 27.9107 125.5143 245° Southwest  Level Estimated
Mon 04:40:00 AM 27.8545 125.3811 244° Southwest  Level Estimated
Mon 04:41:00 AM 27.7981 125.2481 244° Southwest  Level Estimated
Mon 04:42:00 AM 27.7416 125.1152 244° Southwest  Level Estimated
Mon 04:43:00 AM 27.6849 124.9824 244° Southwest  Level Estimated
Mon 04:44:00 AM 27.6282 124.8498 244° Southwest  Level Estimated
Mon 04:45:00 AM 27.5713 124.7173 244° Southwest  Level Estimated
Mon 04:46:00 AM 27.5142 124.5849 244° Southwest  Level Estimated
Mon 04:47:00 AM 27.4571 124.4527 244° Southwest  Level Estimated
Mon 04:48:00 AM 27.3998 124.3206 244° Southwest  Level Estimated
Mon 04:49:00 AM 27.3424 124.1887 244° Southwest  Level Estimated
Mon 04:50:00 AM 27.2849 124.0568 244° Southwest  Level Estimated
Mon 04:51:00 AM 27.2273 123.9252 244° Southwest  Level Estimated
Mon 04:52:00 AM 27.1695 123.7936 244° Southwest  Level Estimated
Mon 04:52:22 AM 26.3540 124.6630 244° Southwest 443 510 38,000  Level FlightAware ADS-B
Mon 04:53:00 AM 27.1117 123.6622 244° Southwest  Level Estimated
Mon 04:53:02 AM 26.3140 124.5840 241° Southwest 444 511 38,000  Level FlightAware ADS-B
Mon 04:53:42 AM 26.2740 124.5050 241° Southwest 446 513 38,300 225 Climbing FlightAware ADS-B
Mon 04:54:22 AM 26.2380 124.4350 240° Southwest 446 513 38,300 1,129 Level FlightAware ADS-B
Mon 04:55:07 AM 26.1860 124.3330 240° Southwest 445 512 39,900 1,133 Climbing FlightAware ADS-B
Mon 04:55:52 AM 26.1430 124.2480 241° Southwest 447 514 40,000 71 Climbing FlightAware ADS-B
Mon 04:56:32 AM 26.1010 124.1650 241° Southwest 447 514 40,000  Level FlightAware ADS-B
Mon 04:57:17 AM 26.0530 124.0710 240° Southwest 446 513 40,000  Level FlightAware ADS-B
Mon 04:57:57 AM 26.0150 123.9910 242° Southwest 445 512 40,000  Level FlightAware ADS-B
Mon 04:58:37 AM 25.9860 123.9080 249° West 442 509 40,000  Level FlightAware ADS-B
Mon 04:59:22 AM 25.9550 123.8130 250° West 440 506 40,000  Level FlightAware ADS-B
Mon 05:00:02 AM 25.9280 123.7280 251° West 439 505 40,000  Level FlightAware ADS-B
Mon 05:00:42 AM 25.8990 123.6430 249° West 438 504 40,000  Level FlightAware ADS-B
Mon 05:01:27 AM 25.8670 123.5460 250° West 438 504 40,000  Level FlightAware ADS-B
Mon 05:02:07 AM 25.8390 123.4630 249° West 438 504 40,000  Level FlightAware ADS-B
Mon 05:02:52 AM 25.8080 123.3690 250° West 436 502 40,000  Level FlightAware ADS-B
Mon 05:03:32 AM 25.7800 123.2850 250° West 436 502 40,000  Level FlightAware ADS-B
Mon 05:04:12 AM 25.7520 123.2020 249° West 438 504 40,000  Level FlightAware ADS-B
Mon 05:04:57 AM 25.7200 123.1050 250° West 439 505 40,000  Level FlightAware ADS-B
Mon 05:05:37 AM 25.6910 123.0210 249° West 439 505 40,000  Level FlightAware ADS-B
Mon 05:06:17 AM 25.6630 122.9360 250° West 440 506 40,000  Level FlightAware ADS-B
Mon 05:06:57 AM 25.6340 122.8510 249° West 441 507 40,000  Level FlightAware ADS-B
Mon 05:07:42 AM 25.6020 122.7570 249° West 442 509 40,000  Level FlightAware ADS-B
Mon 05:08:22 AM 25.5720 122.6700 249° West 441 507 40,000  Level FlightAware ADS-B
Mon 05:09:07 AM 25.5410 122.5770 250° West 441 507 40,000  Level FlightAware ADS-B
Mon 05:09:47 AM 25.5120 122.4920 249° West 441 507 40,000  Level FlightAware ADS-B
Mon 05:10:27 AM 25.4830 122.4070 249° West 441 507 40,000  Level FlightAware ADS-B
Mon 05:11:12 AM 25.4540 122.3150 251° West 441 507 40,000  Level FlightAware ADS-B
Mon 05:11:52 AM 25.4260 122.2290 250° West 440 506 40,000  Level FlightAware ADS-B
Mon 05:12:37 AM 25.3930 122.1320 249° West 441 507 40,000  Level FlightAware ADS-B
Mon 05:13:17 AM 25.3640 122.0490 249° West 442 509 40,000  Level FlightAware ADS-B
Mon 05:14:02 AM 25.3300 121.9550 248° West 442 509 40,000  Level FlightAware ADS-B
Mon 05:14:42 AM 25.3010 121.8710 249° West 443 510 40,000  Level FlightAware ADS-B
Mon 05:15:22 AM 25.2710 121.7870 248° West 444 511 40,000  Level FlightAware ADS-B
Mon 05:16:07 AM 25.2360 121.6890 248° West 443 510 40,000  Level FlightAware ADS-B
Mon 05:16:47 AM 25.2070 121.6050 249° West 442 509 40,000  Level FlightAware ADS-B
Mon 05:17:32 AM 25.1680 121.5150 244° Southwest 450 518 40,000  Level FlightAware ADS-B
Mon 05:18:12 AM 25.1110 121.4420 229° Southwest 456 525 40,000  Level FlightAware ADS-B
Mon 05:18:52 AM 25.0550 121.3740 228° Southwest 454 522 40,000  Level FlightAware ADS-B
Mon 05:19:37 AM 24.9940 121.3000 228° Southwest 453 521 40,000  Level FlightAware ADS-B
Mon 05:20:12 AM 24.9450 121.2410 228° Southwest 453 521 40,000  Level FlightAware ADS-B
Mon 05:20:57 AM 24.8880 121.1740 227° Southwest 453 521 40,000  Level FlightAware ADS-B
Mon 05:21:47 AM 24.8280 121.1020 227° Southwest 453 521 40,000  Level FlightAware ADS-B
Mon 05:22:27 AM 24.7790 121.0450 227° Southwest 453 521 40,000  Level FlightAware ADS-B
Mon 05:23:07 AM 24.7300 120.9870 227° Southwest 453 521 40,000  Level FlightAware ADS-B
Mon 05:23:47 AM 24.6820 120.9300 227° Southwest 453 521 40,000  Level FlightAware ADS-B
Mon 05:24:27 AM 24.6330 120.8730 227° Southwest 453 521 40,000  Level FlightAware ADS-B
Mon 05:25:17 AM 24.5190 120.7290 229° Southwest 451 519 40,000  Level FlightAware ADS-B
Mon 05:25:47 AM 24.4880 120.6920 227° Southwest 451 519 40,000  Level FlightAware ADS-B
Mon 05:26:37 AM 24.4070 120.5950 227° Southwest 450 518 40,000  Level FlightAware ADS-B
Mon 05:27:22 AM 24.3620 120.5410 228° Southwest 450 518 40,000  Level FlightAware ADS-B
Mon 05:27:57 AM 24.2930 120.4600 227° Southwest 450 518 40,000  Level FlightAware ADS-B
Mon 05:28:42 AM 24.2380 120.3950 227° Southwest 449 517 40,000  Level FlightAware ADS-B
Mon 05:29:22 AM 24.1820 120.3280 228° Southwest 449 517 40,000  Level FlightAware ADS-B
Mon 05:30:07 AM 24.1180 120.2520 227° Southwest 448 516 40,000  Level FlightAware ADS-B
Mon 05:30:52 AM 24.0500 120.1710 227° Southwest 447 514 40,000  Level FlightAware ADS-B
Mon 05:31:32 AM 23.9980 120.1100 227° Southwest 447 514 40,000  Level FlightAware ADS-B
Mon 05:32:12 AM 23.9410 120.0430 227° Southwest 446 513 40,000  Level FlightAware ADS-B
Mon 05:32:57 AM 23.8750 119.9650 227° Southwest 446 513 40,000  Level FlightAware ADS-B
Mon 05:33:27 AM 23.8370 119.9200 227° Southwest 447 514 40,000  Level FlightAware ADS-B
Mon 05:34:17 AM 23.7640 119.8340 227° Southwest 448 516 40,000  Level FlightAware ADS-B
Mon 05:34:52 AM 23.7130 119.7740 227° Southwest 450 518 40,000  Level FlightAware ADS-B
Mon 05:35:57 AM 23.6230 119.6700 227° Southwest 449 517 40,000  Level FlightAware ADS-B
Mon 05:36:42 AM 23.5650 119.5850 233° Southwest 441 507 40,000  Level FlightAware ADS-B
Mon 05:37:22 AM 23.5240 119.5140 238° Southwest 442 509 40,000  Level FlightAware ADS-B
Mon 05:38:02 AM 23.4810 119.4390 238° Southwest 442 509 40,000  Level FlightAware ADS-B
Mon 05:38:42 AM 23.4350 119.3610 237° Southwest 441 507 40,000  Level FlightAware ADS-B
Mon 05:39:27 AM 23.3890 119.2810 238° Southwest 441 507 40,000  Level FlightAware ADS-B
Mon 05:40:07 AM 23.3420 119.2010 237° Southwest 440 506 40,000  Level FlightAware ADS-B
Mon 05:40:52 AM 23.2940 119.1180 238° Southwest 440 506 40,000  Level FlightAware ADS-B
Mon 05:41:32 AM 23.2490 119.0410 238° Southwest 440 506 40,000  Level FlightAware ADS-B
Mon 05:42:17 AM 23.2030 118.9640 237° Southwest 439 505 40,000  Level FlightAware ADS-B
Mon 05:42:47 AM 23.1680 118.9030 238° Southwest 439 505 40,000  Level FlightAware ADS-B
Mon 05:43:37 AM 23.1150 118.8120 238° Southwest 440 506 40,000  Level FlightAware ADS-B
Mon 05:44:22 AM 23.0640 118.7260 237° Southwest 440 506 40,000  Level FlightAware ADS-B
Mon 05:45:02 AM 23.0240 118.6600 237° Southwest 440 506 40,000  Level FlightAware ADS-B
Mon 05:45:42 AM 22.9870 118.5970 237° Southwest 440 506 40,000  Level FlightAware ADS-B
Mon 05:46:27 AM 22.9250 118.4920 237° Southwest 443 510 40,000  Level FlightAware ADS-B
Mon 05:47:12 AM 22.8780 118.4110 238° Southwest 442 509 40,000  Level FlightAware ADS-B
Mon 05:47:47 AM 22.8380 118.3450 237° Southwest 442 509 40,000  Level FlightAware ADS-B
Mon 05:48:27 AM 22.7980 118.2780 237° Southwest 442 509 40,000  Level FlightAware ADS-B
Mon 05:49:17 AM 22.7370 118.1760 237° Southwest 444 511 40,000  Level FlightAware ADS-B
Mon 05:50:12 AM 22.6760 118.0740 237° Southwest 446 513 40,000  Level FlightAware ADS-B
Mon 05:50:52 AM 22.6300 117.9980 237° Southwest 447 514 40,000  Level FlightAware ADS-B
Mon 05:51:27 AM 22.5920 117.9340 237° Southwest 448 516 40,000  Level FlightAware ADS-B
Mon 05:52:17 AM 22.5400 117.8460 237° Southwest 449 517 40,000  Level FlightAware ADS-B
Mon 05:52:57 AM 22.4900 117.7630 237° Southwest 448 516 40,000  Level FlightAware ADS-B
Mon 05:53:32 AM 22.4490 117.6930 238° Southwest 449 517 40,000  Level FlightAware ADS-B
Mon 05:54:22 AM 22.3990 117.6100 237° Southwest 449 517 40,000  Level FlightAware ADS-B
Mon 05:54:57 AM 22.3580 117.5410 237° Southwest 450 518 40,000  Level FlightAware ADS-B
Mon 05:55:42 AM 22.3120 117.4620 238° Southwest 450 518 40,000  Level FlightAware ADS-B
Mon 05:56:32 AM 22.2650 117.3810 238° Southwest 450 518 40,000  Level FlightAware ADS-B
Mon 05:57:12 AM 22.2280 117.3160 238° Southwest 450 518 40,000  Level FlightAware ADS-B
Mon 05:57:52 AM 22.1900 117.2510 238° Southwest 450 518 40,000 -1,412 Level FlightAware ADS-B
Mon 05:58:37 AM 22.3250 117.0540 307° West 449 517 38,000 -1,412 Descending FlightAware ADS-B
Mon 05:59:17 AM 22.3240 116.9740 269° West 448 516 38,000  Level FlightAware ADS-B
Mon 06:00:07 AM 22.3210 116.8640 268° West 447 514 38,000  Level FlightAware ADS-B
Mon 06:00:57 AM 22.3180 116.7690 268° West 447 514 38,000  Level FlightAware ADS-B
Mon 06:02:42 AM 22.3140 116.5130 269° West 443 510 38,000  Level FlightAware ADS-B
Mon 06:03:22 AM 22.3120 116.4230 269° West 442 509 38,000  Level FlightAware ADS-B
Mon 06:04:07 AM 22.3090 116.3330 268° West 442 509 38,000  Level FlightAware ADS-B
Mon 06:04:47 AM 22.3060 116.2580 268° West 442 509 38,000  Level FlightAware ADS-B
Mon 06:05:27 AM 22.3050 116.1540 269° West 444 511 38,000  Level FlightAware ADS-B
Mon 06:06:12 AM 22.3020 116.0620 268° West 444 511 38,000  Level FlightAware ADS-B
Mon 06:07:02 AM 22.2990 115.9680 268° West 444 511 38,000  Level FlightAware ADS-B
Mon 06:07:42 AM 22.2960 115.8920 268° West 444 511 38,000  Level FlightAware ADS-B
Mon 06:08:22 AM 22.2940 115.8170 268° West 444 511 38,000  Level FlightAware ADS-B
Mon 06:09:02 AM 22.2920 115.7410 268° West 444 511 38,000  Level FlightAware ADS-B
Mon 06:09:42 AM 22.2890 115.6660 268° West 444 511 38,000  Level FlightAware ADS-B
Mon 06:10:22 AM 22.2870 115.5900 268° West 444 511 38,000  Level FlightAware ADS-B
Mon 06:11:12 AM 22.2840 115.4960 268° West 444 511 38,000  Level FlightAware ADS-B
Mon 06:11:52 AM 22.2810 115.4210 268° West 444 511 38,000  Level FlightAware ADS-B
Mon 06:12:32 AM 22.2790 115.3450 268° West 444 511 38,000  Level FlightAware ADS-B
Mon 06:13:12 AM 22.2760 115.2700 268° West 444 511 38,000  Level FlightAware ADS-B
Mon 06:14:02 AM 22.2730 115.1750 268° West 444 511 38,000  Level FlightAware ADS-B
Mon 06:14:42 AM 22.2710 115.1000 268° West 444 511 38,000 -18,000 Level FlightAware ADS-B
Mon 06:15:22 AM 22.2680 114.8630 269° West 364 419 14,000 -17,647 Descending FlightAware ADS-B
Mon 06:16:07 AM 22.2650 114.7840 268° West 346 398 13,000 -706 Descending FlightAware ADS-B
Mon 06:16:47 AM 22.2630 114.7120 268° West 353 406 13,000  Level FlightAware ADS-B
Mon 06:17:27 AM 22.2610 114.6460 268° West 354 407 13,000  Level FlightAware ADS-B
Mon 06:18:27 AM 22.2560 114.5450 267° West 352 405 13,000 -442 Level FlightAware ADS-B
Mon 06:19:02 AM 22.2550 114.4830 269° West 323 372 12,300 -667 Descending FlightAware ADS-B
Mon 06:19:57 AM 22.2510 114.3960 267° West 325 374 12,000 -171 Descending FlightAware ADS-B
Mon 06:20:47 AM 22.2480 114.3280 267° West 325 374 12,000  Level FlightAware ADS-B
Mon 06:21:27 AM 22.2450 114.2720 267° West 325 374 12,000 -576 Level FlightAware ADS-B
Mon 06:22:12 AM 22.2240 114.2290 242° Southwest 11,600 -847 Descending FlightAware ADS-B
Mon 06:22:52 AM 22.2020 114.1710 248° West 256 295 10,800 -1,129 Descending FlightAware ADS-B
Mon 06:23:37 AM 22.1840 114.1240 248° West 253 291 10,000 -1,029 Descending FlightAware ADS-B
Mon 06:24:02 AM 22.1770 114.1050 248° West 251 289 9,600 -982 Descending FlightAware ADS-B
Mon 06:24:32 AM 22.1650 114.0740 247° West 250 288 9,100 -1,200 Descending FlightAware ADS-B
Mon 06:25:12 AM 22.1470 114.0260 248° West 247 284 8,200 -1,100 Descending FlightAware ADS-B
Mon 06:25:32 AM 22.1350 113.9950 247° West 250 288 8,000 -900 Descending FlightAware ADS-B
Mon 06:26:12 AM 22.1160 113.9460 247° West 245 282 7,300 -1,114 Descending FlightAware ADS-B
Mon 06:26:42 AM 22.1040 113.9140 248° West 243 280 6,700 -1,320 Descending FlightAware ADS-B
Mon 06:27:02 AM 22.1040 113.8830 270° West 248 285 6,200 -600 Descending FlightAware ADS-B
Mon 06:27:42 AM 22.1050 113.8480 272° West 248 285 6,100 -867 Descending FlightAware ADS-B
Mon 06:29:52 AM 22.1630 113.7440 301° West 3,600 -1,071 Descending FlightAware ADS-B
Mon 06:30:02 AM 22.1750 113.7400 343° North 209 241 3,600  Level FlightAware ADS-B
Mon 06:30:12 AM 22.1790 113.7380 335° Northwest 209 241 3,600 -150 Level FlightAware ADS-B
Mon 06:30:42 AM 22.2040 113.7290 342° North 208 239 3,500 -764 Descending FlightAware ADS-B
Mon 06:33:00 AM 22.3089 113.9146 59° Northeast  Level Estimated
Mon 06:33:52 AM 22.3000 113.8650 59° Northeast 152 175 800  Level FlightAware ADS-B
Mon 06:34:02 AM 22.3030 113.8740 70° East 151 174 600 -900 Descending FlightAware ADS-B
Mon 06:34:32 AM 22.3100 113.8940 69° East 140 161 200 -800 Descending FlightAware ADS-B

Login

Don't have an account? Register now (free) for customized features, flight alerts, and more!